<?xml version="1.0" encoding="UTF-8" standalone="no" ?>
<gpx xmlns="http://www.topografix.com/GPX/1/1" xmlns:xsi="http://www.w3.org/2001/XMLSchema-instance" xsi:schemaLocation="http://www.topografix.com/GPX/1/1 http://www.topografix.com/GPX/1/1/gpx.xsd" version="1.1" creator="VisuGPX - https://www.visugpx.com">
  <metadata>
    <name> BOBBY  2017 en solo</name>
    <desc><![CDATA[Balade à Bertrix en solo bien sympa journée de sport ]]></desc>
  </metadata>
  <trk>
    <name><![CDATA[ BOBBY  2017 en solo_1]]></name>
    <trkseg>
      <trkpt lat="49.88282" lon="5.23223">
        <ele>368</ele>
        <time>2018-06-15T07:11:05Z</time>
      </trkpt>
      <trkpt lat="49.88293" lon="5.23202">
        <ele>370</ele>
        <time>2018-06-15T07:11:15Z</time>
      </trkpt>
      <trkpt lat="49.88301" lon="5.23184">
        <ele>370</ele>
        <time>2018-06-15T07:11:25Z</time>
      </trkpt>
      <trkpt lat="49.88311" lon="5.23167">
        <ele>371</ele>
        <time>2018-06-15T07:11:35Z</time>
      </trkpt>
      <trkpt lat="49.88321" lon="5.23151">
        <ele>371</ele>
        <time>2018-06-15T07:11:46Z</time>
      </trkpt>
      <trkpt lat="49.88329" lon="5.23135">
        <ele>373</ele>
        <time>2018-06-15T07:11:57Z</time>
      </trkpt>
      <trkpt lat="49.88337" lon="5.23117">
        <ele>373</ele>
        <time>2018-06-15T07:12:08Z</time>
      </trkpt>
      <trkpt lat="49.88351" lon="5.23095">
        <ele>374</ele>
        <time>2018-06-15T07:12:18Z</time>
      </trkpt>
      <trkpt lat="49.88367" lon="5.23066">
        <ele>374</ele>
        <time>2018-06-15T07:12:29Z</time>
      </trkpt>
      <trkpt lat="49.88388" lon="5.23035">
        <ele>374</ele>
        <time>2018-06-15T07:12:40Z</time>
      </trkpt>
      <trkpt lat="49.88409" lon="5.23008">
        <ele>375</ele>
        <time>2018-06-15T07:12:51Z</time>
      </trkpt>
      <trkpt lat="49.88422" lon="5.22985">
        <ele>375</ele>
        <time>2018-06-15T07:13:01Z</time>
      </trkpt>
      <trkpt lat="49.88437" lon="5.22962">
        <ele>375</ele>
        <time>2018-06-15T07:13:13Z</time>
      </trkpt>
      <trkpt lat="49.88447" lon="5.22943">
        <ele>375</ele>
        <time>2018-06-15T07:13:23Z</time>
      </trkpt>
      <trkpt lat="49.8846" lon="5.22923">
        <ele>376</ele>
        <time>2018-06-15T07:13:34Z</time>
      </trkpt>
      <trkpt lat="49.88471" lon="5.22905">
        <ele>377</ele>
        <time>2018-06-15T07:13:44Z</time>
      </trkpt>
      <trkpt lat="49.88491" lon="5.22877">
        <ele>377</ele>
        <time>2018-06-15T07:13:55Z</time>
      </trkpt>
      <trkpt lat="49.88514" lon="5.22843">
        <ele>378</ele>
        <time>2018-06-15T07:14:06Z</time>
      </trkpt>
      <trkpt lat="49.8853" lon="5.22822">
        <ele>379</ele>
        <time>2018-06-15T07:14:16Z</time>
      </trkpt>
      <trkpt lat="49.88541" lon="5.22801">
        <ele>380</ele>
        <time>2018-06-15T07:14:27Z</time>
      </trkpt>
      <trkpt lat="49.88552" lon="5.22781">
        <ele>380</ele>
        <time>2018-06-15T07:14:38Z</time>
      </trkpt>
      <trkpt lat="49.88565" lon="5.22761">
        <ele>380</ele>
        <time>2018-06-15T07:14:49Z</time>
      </trkpt>
      <trkpt lat="49.88574" lon="5.22742">
        <ele>380</ele>
        <time>2018-06-15T07:14:59Z</time>
      </trkpt>
      <trkpt lat="49.88585" lon="5.22721">
        <ele>381</ele>
        <time>2018-06-15T07:15:10Z</time>
      </trkpt>
      <trkpt lat="49.88605" lon="5.22691">
        <ele>381</ele>
        <time>2018-06-15T07:15:21Z</time>
      </trkpt>
      <trkpt lat="49.88627" lon="5.22656">
        <ele>382</ele>
        <time>2018-06-15T07:15:32Z</time>
      </trkpt>
      <trkpt lat="49.88647" lon="5.22622">
        <ele>383</ele>
        <time>2018-06-15T07:15:43Z</time>
      </trkpt>
      <trkpt lat="49.88665" lon="5.22597">
        <ele>383</ele>
        <time>2018-06-15T07:15:53Z</time>
      </trkpt>
      <trkpt lat="49.88677" lon="5.2258">
        <ele>384</ele>
        <time>2018-06-15T07:16:03Z</time>
      </trkpt>
      <trkpt lat="49.88688" lon="5.22559">
        <ele>385</ele>
        <time>2018-06-15T07:16:14Z</time>
      </trkpt>
      <trkpt lat="49.88699" lon="5.22539">
        <ele>385</ele>
        <time>2018-06-15T07:16:25Z</time>
      </trkpt>
      <trkpt lat="49.88709" lon="5.22518">
        <ele>386</ele>
        <time>2018-06-15T07:16:36Z</time>
      </trkpt>
      <trkpt lat="49.8872" lon="5.225">
        <ele>386</ele>
        <time>2018-06-15T07:16:46Z</time>
      </trkpt>
      <trkpt lat="49.88731" lon="5.22482">
        <ele>387</ele>
        <time>2018-06-15T07:16:56Z</time>
      </trkpt>
      <trkpt lat="49.88741" lon="5.22462">
        <ele>387</ele>
        <time>2018-06-15T07:17:06Z</time>
      </trkpt>
      <trkpt lat="49.88754" lon="5.22442">
        <ele>388</ele>
        <time>2018-06-15T07:17:17Z</time>
      </trkpt>
      <trkpt lat="49.88766" lon="5.22422">
        <ele>388</ele>
        <time>2018-06-15T07:17:28Z</time>
      </trkpt>
      <trkpt lat="49.88777" lon="5.22402">
        <ele>388</ele>
        <time>2018-06-15T07:17:39Z</time>
      </trkpt>
      <trkpt lat="49.88788" lon="5.22382">
        <ele>388</ele>
        <time>2018-06-15T07:17:50Z</time>
      </trkpt>
      <trkpt lat="49.88799" lon="5.22365">
        <ele>388</ele>
        <time>2018-06-15T07:18:00Z</time>
      </trkpt>
      <trkpt lat="49.88809" lon="5.22346">
        <ele>389</ele>
        <time>2018-06-15T07:18:11Z</time>
      </trkpt>
      <trkpt lat="49.88823" lon="5.22329">
        <ele>389</ele>
        <time>2018-06-15T07:18:22Z</time>
      </trkpt>
      <trkpt lat="49.88837" lon="5.22313">
        <ele>389</ele>
        <time>2018-06-15T07:18:32Z</time>
      </trkpt>
      <trkpt lat="49.88852" lon="5.22296">
        <ele>389</ele>
        <time>2018-06-15T07:18:43Z</time>
      </trkpt>
      <trkpt lat="49.88867" lon="5.22283">
        <ele>389</ele>
        <time>2018-06-15T07:18:53Z</time>
      </trkpt>
      <trkpt lat="49.88882" lon="5.2227">
        <ele>389</ele>
        <time>2018-06-15T07:19:04Z</time>
      </trkpt>
      <trkpt lat="49.88896" lon="5.22259">
        <ele>390</ele>
        <time>2018-06-15T07:19:14Z</time>
      </trkpt>
      <trkpt lat="49.8891" lon="5.22248">
        <ele>391</ele>
        <time>2018-06-15T07:19:25Z</time>
      </trkpt>
      <trkpt lat="49.88923" lon="5.22238">
        <ele>391</ele>
        <time>2018-06-15T07:19:35Z</time>
      </trkpt>
      <trkpt lat="49.88938" lon="5.2223">
        <ele>391</ele>
        <time>2018-06-15T07:19:46Z</time>
      </trkpt>
      <trkpt lat="49.88956" lon="5.22224">
        <ele>392</ele>
        <time>2018-06-15T07:19:57Z</time>
      </trkpt>
      <trkpt lat="49.88974" lon="5.22219">
        <ele>392</ele>
        <time>2018-06-15T07:20:08Z</time>
      </trkpt>
      <trkpt lat="49.8899" lon="5.22219">
        <ele>392</ele>
        <time>2018-06-15T07:20:18Z</time>
      </trkpt>
      <trkpt lat="49.89008" lon="5.22219">
        <ele>392</ele>
        <time>2018-06-15T07:20:28Z</time>
      </trkpt>
      <trkpt lat="49.89027" lon="5.22218">
        <ele>393</ele>
        <time>2018-06-15T07:20:39Z</time>
      </trkpt>
      <trkpt lat="49.89041" lon="5.22215">
        <ele>394</ele>
        <time>2018-06-15T07:20:49Z</time>
      </trkpt>
      <trkpt lat="49.89052" lon="5.22217">
        <ele>396</ele>
        <time>2018-06-15T07:21:00Z</time>
      </trkpt>
      <trkpt lat="49.89065" lon="5.22213">
        <ele>397</ele>
        <time>2018-06-15T07:21:10Z</time>
      </trkpt>
      <trkpt lat="49.89085" lon="5.22211">
        <ele>398</ele>
        <time>2018-06-15T07:21:21Z</time>
      </trkpt>
      <trkpt lat="49.89104" lon="5.22206">
        <ele>399</ele>
        <time>2018-06-15T07:21:32Z</time>
      </trkpt>
      <trkpt lat="49.89124" lon="5.22201">
        <ele>399</ele>
        <time>2018-06-15T07:21:42Z</time>
      </trkpt>
      <trkpt lat="49.89142" lon="5.22193">
        <ele>400</ele>
        <time>2018-06-15T07:21:53Z</time>
      </trkpt>
      <trkpt lat="49.8916" lon="5.22183">
        <ele>400</ele>
        <time>2018-06-15T07:22:04Z</time>
      </trkpt>
      <trkpt lat="49.8918" lon="5.22174">
        <ele>400</ele>
        <time>2018-06-15T07:22:14Z</time>
      </trkpt>
      <trkpt lat="49.89211" lon="5.22157">
        <ele>400</ele>
        <time>2018-06-15T07:22:25Z</time>
      </trkpt>
      <trkpt lat="49.89242" lon="5.22137">
        <ele>400</ele>
        <time>2018-06-15T07:22:36Z</time>
      </trkpt>
      <trkpt lat="49.89269" lon="5.2212">
        <ele>399</ele>
        <time>2018-06-15T07:22:46Z</time>
      </trkpt>
      <trkpt lat="49.89298" lon="5.22104">
        <ele>399</ele>
        <time>2018-06-15T07:22:57Z</time>
      </trkpt>
      <trkpt lat="49.89323" lon="5.22092">
        <ele>399</ele>
        <time>2018-06-15T07:23:07Z</time>
      </trkpt>
      <trkpt lat="49.89351" lon="5.22082">
        <ele>398</ele>
        <time>2018-06-15T07:23:17Z</time>
      </trkpt>
      <trkpt lat="49.89377" lon="5.22074">
        <ele>398</ele>
        <time>2018-06-15T07:23:27Z</time>
      </trkpt>
      <trkpt lat="49.89407" lon="5.22065">
        <ele>398</ele>
        <time>2018-06-15T07:23:38Z</time>
      </trkpt>
      <trkpt lat="49.89436" lon="5.22059">
        <ele>397</ele>
        <time>2018-06-15T07:23:49Z</time>
      </trkpt>
      <trkpt lat="49.89463" lon="5.22053">
        <ele>396</ele>
        <time>2018-06-15T07:23:59Z</time>
      </trkpt>
      <trkpt lat="49.89492" lon="5.22048">
        <ele>394</ele>
        <time>2018-06-15T07:24:10Z</time>
      </trkpt>
      <trkpt lat="49.8952" lon="5.22035">
        <ele>393</ele>
        <time>2018-06-15T07:24:21Z</time>
      </trkpt>
      <trkpt lat="49.89542" lon="5.22014">
        <ele>391</ele>
        <time>2018-06-15T07:24:32Z</time>
      </trkpt>
      <trkpt lat="49.89561" lon="5.21992">
        <ele>390</ele>
        <time>2018-06-15T07:24:42Z</time>
      </trkpt>
      <trkpt lat="49.89566" lon="5.22024">
        <ele>390</ele>
        <time>2018-06-15T07:24:53Z</time>
      </trkpt>
      <trkpt lat="49.8957" lon="5.22053">
        <ele>391</ele>
        <time>2018-06-15T07:25:04Z</time>
      </trkpt>
      <trkpt lat="49.89574" lon="5.22085">
        <ele>391</ele>
        <time>2018-06-15T07:25:14Z</time>
      </trkpt>
      <trkpt lat="49.89578" lon="5.22112">
        <ele>391</ele>
        <time>2018-06-15T07:25:24Z</time>
      </trkpt>
      <trkpt lat="49.89584" lon="5.22147">
        <ele>393</ele>
        <time>2018-06-15T07:25:35Z</time>
      </trkpt>
      <trkpt lat="49.89589" lon="5.22177">
        <ele>394</ele>
        <time>2018-06-15T07:25:45Z</time>
      </trkpt>
      <trkpt lat="49.89593" lon="5.22211">
        <ele>394</ele>
        <time>2018-06-15T07:25:55Z</time>
      </trkpt>
      <trkpt lat="49.89596" lon="5.22246">
        <ele>394</ele>
        <time>2018-06-15T07:26:06Z</time>
      </trkpt>
      <trkpt lat="49.89601" lon="5.22278">
        <ele>394</ele>
        <time>2018-06-15T07:26:16Z</time>
      </trkpt>
      <trkpt lat="49.89605" lon="5.22313">
        <ele>394</ele>
        <time>2018-06-15T07:26:27Z</time>
      </trkpt>
      <trkpt lat="49.89611" lon="5.22346">
        <ele>394</ele>
        <time>2018-06-15T07:26:37Z</time>
      </trkpt>
      <trkpt lat="49.89621" lon="5.22378">
        <ele>394</ele>
        <time>2018-06-15T07:26:47Z</time>
      </trkpt>
      <trkpt lat="49.8964" lon="5.22407">
        <ele>393</ele>
        <time>2018-06-15T07:26:58Z</time>
      </trkpt>
      <trkpt lat="49.8966" lon="5.22429">
        <ele>392</ele>
        <time>2018-06-15T07:27:08Z</time>
      </trkpt>
      <trkpt lat="49.89681" lon="5.22451">
        <ele>391</ele>
        <time>2018-06-15T07:27:18Z</time>
      </trkpt>
      <trkpt lat="49.89703" lon="5.22472">
        <ele>391</ele>
        <time>2018-06-15T07:27:29Z</time>
      </trkpt>
      <trkpt lat="49.89723" lon="5.22491">
        <ele>390</ele>
        <time>2018-06-15T07:27:39Z</time>
      </trkpt>
      <trkpt lat="49.89746" lon="5.22513">
        <ele>390</ele>
        <time>2018-06-15T07:27:50Z</time>
      </trkpt>
      <trkpt lat="49.89766" lon="5.22535">
        <ele>388</ele>
        <time>2018-06-15T07:28:00Z</time>
      </trkpt>
      <trkpt lat="49.89786" lon="5.22562">
        <ele>388</ele>
        <time>2018-06-15T07:28:11Z</time>
      </trkpt>
      <trkpt lat="49.89802" lon="5.22587">
        <ele>387</ele>
        <time>2018-06-15T07:28:21Z</time>
      </trkpt>
      <trkpt lat="49.89818" lon="5.22615">
        <ele>387</ele>
        <time>2018-06-15T07:28:32Z</time>
      </trkpt>
      <trkpt lat="49.89834" lon="5.22638">
        <ele>387</ele>
        <time>2018-06-15T07:28:42Z</time>
      </trkpt>
      <trkpt lat="49.89846" lon="5.22651">
        <ele>388</ele>
        <time>2018-06-15T07:28:53Z</time>
      </trkpt>
      <trkpt lat="49.89857" lon="5.22662">
        <ele>388</ele>
        <time>2018-06-15T07:29:03Z</time>
      </trkpt>
      <trkpt lat="49.89866" lon="5.22676">
        <ele>389</ele>
        <time>2018-06-15T07:29:13Z</time>
      </trkpt>
      <trkpt lat="49.89873" lon="5.22692">
        <ele>389</ele>
        <time>2018-06-15T07:29:24Z</time>
      </trkpt>
      <trkpt lat="49.89878" lon="5.22708">
        <ele>390</ele>
        <time>2018-06-15T07:29:34Z</time>
      </trkpt>
      <trkpt lat="49.89885" lon="5.22727">
        <ele>391</ele>
        <time>2018-06-15T07:29:45Z</time>
      </trkpt>
      <trkpt lat="49.8989" lon="5.22744">
        <ele>392</ele>
        <time>2018-06-15T07:29:55Z</time>
      </trkpt>
      <trkpt lat="49.89898" lon="5.22764">
        <ele>393</ele>
        <time>2018-06-15T07:30:06Z</time>
      </trkpt>
      <trkpt lat="49.89904" lon="5.22784">
        <ele>393</ele>
        <time>2018-06-15T07:30:16Z</time>
      </trkpt>
      <trkpt lat="49.89911" lon="5.22805">
        <ele>395</ele>
        <time>2018-06-15T07:30:27Z</time>
      </trkpt>
      <trkpt lat="49.89917" lon="5.22824">
        <ele>395</ele>
        <time>2018-06-15T07:30:37Z</time>
      </trkpt>
      <trkpt lat="49.89921" lon="5.22845">
        <ele>395</ele>
        <time>2018-06-15T07:30:47Z</time>
      </trkpt>
      <trkpt lat="49.89927" lon="5.22867">
        <ele>396</ele>
        <time>2018-06-15T07:30:58Z</time>
      </trkpt>
      <trkpt lat="49.89933" lon="5.22889">
        <ele>396</ele>
        <time>2018-06-15T07:31:08Z</time>
      </trkpt>
      <trkpt lat="49.89938" lon="5.22915">
        <ele>397</ele>
        <time>2018-06-15T07:31:19Z</time>
      </trkpt>
      <trkpt lat="49.89944" lon="5.2294">
        <ele>397</ele>
        <time>2018-06-15T07:31:29Z</time>
      </trkpt>
      <trkpt lat="49.89953" lon="5.22974">
        <ele>398</ele>
        <time>2018-06-15T07:31:40Z</time>
      </trkpt>
      <trkpt lat="49.8996" lon="5.23011">
        <ele>398</ele>
        <time>2018-06-15T07:31:50Z</time>
      </trkpt>
      <trkpt lat="49.89969" lon="5.23054">
        <ele>399</ele>
        <time>2018-06-15T07:32:01Z</time>
      </trkpt>
      <trkpt lat="49.89977" lon="5.23094">
        <ele>399</ele>
        <time>2018-06-15T07:32:12Z</time>
      </trkpt>
      <trkpt lat="49.89985" lon="5.23128">
        <ele>399</ele>
        <time>2018-06-15T07:32:22Z</time>
      </trkpt>
      <trkpt lat="49.89991" lon="5.23163">
        <ele>400</ele>
        <time>2018-06-15T07:32:33Z</time>
      </trkpt>
      <trkpt lat="49.89998" lon="5.23192">
        <ele>400</ele>
        <time>2018-06-15T07:32:43Z</time>
      </trkpt>
      <trkpt lat="49.90007" lon="5.23216">
        <ele>401</ele>
        <time>2018-06-15T07:32:54Z</time>
      </trkpt>
      <trkpt lat="49.90015" lon="5.23233">
        <ele>401</ele>
        <time>2018-06-15T07:33:04Z</time>
      </trkpt>
      <trkpt lat="49.90029" lon="5.23261">
        <ele>401</ele>
        <time>2018-06-15T07:33:15Z</time>
      </trkpt>
      <trkpt lat="49.90039" lon="5.23294">
        <ele>401</ele>
        <time>2018-06-15T07:33:25Z</time>
      </trkpt>
      <trkpt lat="49.90054" lon="5.2333">
        <ele>402</ele>
        <time>2018-06-15T07:33:36Z</time>
      </trkpt>
      <trkpt lat="49.9007" lon="5.23364">
        <ele>402</ele>
        <time>2018-06-15T07:33:47Z</time>
      </trkpt>
      <trkpt lat="49.90084" lon="5.23389">
        <ele>402</ele>
        <time>2018-06-15T07:33:57Z</time>
      </trkpt>
      <trkpt lat="49.90097" lon="5.23416">
        <ele>402</ele>
        <time>2018-06-15T07:34:07Z</time>
      </trkpt>
      <trkpt lat="49.90108" lon="5.23435">
        <ele>402</ele>
        <time>2018-06-15T07:34:18Z</time>
      </trkpt>
      <trkpt lat="49.90114" lon="5.23452">
        <ele>402</ele>
        <time>2018-06-15T07:34:28Z</time>
      </trkpt>
      <trkpt lat="49.90122" lon="5.2347">
        <ele>402</ele>
        <time>2018-06-15T07:34:38Z</time>
      </trkpt>
      <trkpt lat="49.90133" lon="5.23484">
        <ele>403</ele>
        <time>2018-06-15T07:34:49Z</time>
      </trkpt>
      <trkpt lat="49.90148" lon="5.23495">
        <ele>404</ele>
        <time>2018-06-15T07:34:59Z</time>
      </trkpt>
      <trkpt lat="49.90162" lon="5.23511">
        <ele>404</ele>
        <time>2018-06-15T07:35:10Z</time>
      </trkpt>
      <trkpt lat="49.90172" lon="5.23529">
        <ele>404</ele>
        <time>2018-06-15T07:35:21Z</time>
      </trkpt>
      <trkpt lat="49.90181" lon="5.23544">
        <ele>404</ele>
        <time>2018-06-15T07:35:31Z</time>
      </trkpt>
      <trkpt lat="49.9019" lon="5.23557">
        <ele>404</ele>
        <time>2018-06-15T07:35:41Z</time>
      </trkpt>
      <trkpt lat="49.902" lon="5.23574">
        <ele>404</ele>
        <time>2018-06-15T07:35:51Z</time>
      </trkpt>
      <trkpt lat="49.90215" lon="5.2361">
        <ele>402</ele>
        <time>2018-06-15T07:36:02Z</time>
      </trkpt>
      <trkpt lat="49.90234" lon="5.23642">
        <ele>402</ele>
        <time>2018-06-15T07:36:13Z</time>
      </trkpt>
      <trkpt lat="49.9025" lon="5.23665">
        <ele>402</ele>
        <time>2018-06-15T07:36:23Z</time>
      </trkpt>
      <trkpt lat="49.90259" lon="5.23638">
        <ele>400</ele>
        <time>2018-06-15T07:36:34Z</time>
      </trkpt>
      <trkpt lat="49.90267" lon="5.23614">
        <ele>401</ele>
        <time>2018-06-15T07:36:44Z</time>
      </trkpt>
      <trkpt lat="49.90274" lon="5.23584">
        <ele>401</ele>
        <time>2018-06-15T07:36:55Z</time>
      </trkpt>
      <trkpt lat="49.9028" lon="5.23554">
        <ele>402</ele>
        <time>2018-06-15T07:37:05Z</time>
      </trkpt>
      <trkpt lat="49.90281" lon="5.23521">
        <ele>401</ele>
        <time>2018-06-15T07:37:16Z</time>
      </trkpt>
      <trkpt lat="49.90283" lon="5.23491">
        <ele>401</ele>
        <time>2018-06-15T07:37:26Z</time>
      </trkpt>
      <trkpt lat="49.90286" lon="5.23459">
        <ele>401</ele>
        <time>2018-06-15T07:37:36Z</time>
      </trkpt>
      <trkpt lat="49.90289" lon="5.23427">
        <ele>401</ele>
        <time>2018-06-15T07:37:46Z</time>
      </trkpt>
      <trkpt lat="49.9029" lon="5.2339">
        <ele>401</ele>
        <time>2018-06-15T07:37:56Z</time>
      </trkpt>
      <trkpt lat="49.90293" lon="5.23354">
        <ele>400</ele>
        <time>2018-06-15T07:38:07Z</time>
      </trkpt>
      <trkpt lat="49.90296" lon="5.23324">
        <ele>400</ele>
        <time>2018-06-15T07:38:17Z</time>
      </trkpt>
      <trkpt lat="49.90296" lon="5.23289">
        <ele>400</ele>
        <time>2018-06-15T07:38:28Z</time>
      </trkpt>
      <trkpt lat="49.90298" lon="5.23255">
        <ele>400</ele>
        <time>2018-06-15T07:38:38Z</time>
      </trkpt>
      <trkpt lat="49.90301" lon="5.23228">
        <ele>399</ele>
        <time>2018-06-15T07:38:48Z</time>
      </trkpt>
      <trkpt lat="49.90306" lon="5.23195">
        <ele>400</ele>
        <time>2018-06-15T07:38:59Z</time>
      </trkpt>
      <trkpt lat="49.90316" lon="5.23171">
        <ele>400</ele>
        <time>2018-06-15T07:39:10Z</time>
      </trkpt>
      <trkpt lat="49.90323" lon="5.23144">
        <ele>399</ele>
        <time>2018-06-15T07:39:20Z</time>
      </trkpt>
      <trkpt lat="49.90332" lon="5.23121">
        <ele>399</ele>
        <time>2018-06-15T07:39:30Z</time>
      </trkpt>
      <trkpt lat="49.90338" lon="5.231">
        <ele>399</ele>
        <time>2018-06-15T07:39:40Z</time>
      </trkpt>
      <trkpt lat="49.90343" lon="5.23073">
        <ele>397</ele>
        <time>2018-06-15T07:39:50Z</time>
      </trkpt>
      <trkpt lat="49.90349" lon="5.23041">
        <ele>397</ele>
        <time>2018-06-15T07:40:00Z</time>
      </trkpt>
      <trkpt lat="49.90353" lon="5.23005">
        <ele>395</ele>
        <time>2018-06-15T07:40:11Z</time>
      </trkpt>
      <trkpt lat="49.90358" lon="5.22971">
        <ele>395</ele>
        <time>2018-06-15T07:40:22Z</time>
      </trkpt>
      <trkpt lat="49.90365" lon="5.22936">
        <ele>394</ele>
        <time>2018-06-15T07:40:32Z</time>
      </trkpt>
      <trkpt lat="49.90374" lon="5.22897">
        <ele>394</ele>
        <time>2018-06-15T07:40:43Z</time>
      </trkpt>
      <trkpt lat="49.90382" lon="5.2286">
        <ele>394</ele>
        <time>2018-06-15T07:40:54Z</time>
      </trkpt>
      <trkpt lat="49.9039" lon="5.22829">
        <ele>393</ele>
        <time>2018-06-15T07:41:04Z</time>
      </trkpt>
      <trkpt lat="49.90397" lon="5.228">
        <ele>394</ele>
        <time>2018-06-15T07:41:15Z</time>
      </trkpt>
      <trkpt lat="49.90402" lon="5.22778">
        <ele>393</ele>
        <time>2018-06-15T07:41:25Z</time>
      </trkpt>
      <trkpt lat="49.90408" lon="5.22753">
        <ele>393</ele>
        <time>2018-06-15T07:41:36Z</time>
      </trkpt>
      <trkpt lat="49.90421" lon="5.22739">
        <ele>393</ele>
        <time>2018-06-15T07:41:46Z</time>
      </trkpt>
      <trkpt lat="49.90439" lon="5.22741">
        <ele>392</ele>
        <time>2018-06-15T07:41:56Z</time>
      </trkpt>
      <trkpt lat="49.90456" lon="5.22743">
        <ele>392</ele>
        <time>2018-06-15T07:42:07Z</time>
      </trkpt>
      <trkpt lat="49.90476" lon="5.22749">
        <ele>391</ele>
        <time>2018-06-15T07:42:17Z</time>
      </trkpt>
      <trkpt lat="49.90498" lon="5.22755">
        <ele>389</ele>
        <time>2018-06-15T07:42:28Z</time>
      </trkpt>
      <trkpt lat="49.90523" lon="5.22758">
        <ele>388</ele>
        <time>2018-06-15T07:42:39Z</time>
      </trkpt>
      <trkpt lat="49.90552" lon="5.22764">
        <ele>387</ele>
        <time>2018-06-15T07:42:50Z</time>
      </trkpt>
      <trkpt lat="49.90578" lon="5.2277">
        <ele>386</ele>
        <time>2018-06-15T07:43:00Z</time>
      </trkpt>
      <trkpt lat="49.90604" lon="5.22773">
        <ele>385</ele>
        <time>2018-06-15T07:43:10Z</time>
      </trkpt>
      <trkpt lat="49.90626" lon="5.22777">
        <ele>384</ele>
        <time>2018-06-15T07:43:20Z</time>
      </trkpt>
      <trkpt lat="49.90649" lon="5.2278">
        <ele>383</ele>
        <time>2018-06-15T07:43:31Z</time>
      </trkpt>
      <trkpt lat="49.90662" lon="5.22799">
        <ele>382</ele>
        <time>2018-06-15T07:43:41Z</time>
      </trkpt>
      <trkpt lat="49.90667" lon="5.2283">
        <ele>381</ele>
        <time>2018-06-15T07:43:52Z</time>
      </trkpt>
      <trkpt lat="49.90673" lon="5.22858">
        <ele>382</ele>
        <time>2018-06-15T07:44:02Z</time>
      </trkpt>
      <trkpt lat="49.90678" lon="5.2289">
        <ele>382</ele>
        <time>2018-06-15T07:44:13Z</time>
      </trkpt>
      <trkpt lat="49.90683" lon="5.22921">
        <ele>382</ele>
        <time>2018-06-15T07:44:23Z</time>
      </trkpt>
      <trkpt lat="49.9069" lon="5.22953">
        <ele>382</ele>
        <time>2018-06-15T07:44:34Z</time>
      </trkpt>
      <trkpt lat="49.90695" lon="5.22976">
        <ele>382</ele>
        <time>2018-06-15T07:44:44Z</time>
      </trkpt>
      <trkpt lat="49.90701" lon="5.22998">
        <ele>382</ele>
        <time>2018-06-15T07:44:55Z</time>
      </trkpt>
      <trkpt lat="49.90707" lon="5.23022">
        <ele>383</ele>
        <time>2018-06-15T07:45:05Z</time>
      </trkpt>
      <trkpt lat="49.90715" lon="5.23054">
        <ele>383</ele>
        <time>2018-06-15T07:45:16Z</time>
      </trkpt>
      <trkpt lat="49.9072" lon="5.23081">
        <ele>383</ele>
        <time>2018-06-15T07:45:26Z</time>
      </trkpt>
      <trkpt lat="49.90725" lon="5.23099">
        <ele>383</ele>
        <time>2018-06-15T07:45:36Z</time>
      </trkpt>
      <trkpt lat="49.90731" lon="5.23122">
        <ele>383</ele>
        <time>2018-06-15T07:45:47Z</time>
      </trkpt>
      <trkpt lat="49.90737" lon="5.23143">
        <ele>383</ele>
        <time>2018-06-15T07:45:58Z</time>
      </trkpt>
      <trkpt lat="49.90742" lon="5.23164">
        <ele>384</ele>
        <time>2018-06-15T07:46:08Z</time>
      </trkpt>
      <trkpt lat="49.90747" lon="5.23185">
        <ele>384</ele>
        <time>2018-06-15T07:46:19Z</time>
      </trkpt>
      <trkpt lat="49.90752" lon="5.23204">
        <ele>384</ele>
        <time>2018-06-15T07:46:29Z</time>
      </trkpt>
      <trkpt lat="49.90754" lon="5.23228">
        <ele>384</ele>
        <time>2018-06-15T07:46:39Z</time>
      </trkpt>
      <trkpt lat="49.90756" lon="5.23249">
        <ele>386</ele>
        <time>2018-06-15T07:46:49Z</time>
      </trkpt>
      <trkpt lat="49.9076" lon="5.2327">
        <ele>386</ele>
        <time>2018-06-15T07:46:59Z</time>
      </trkpt>
      <trkpt lat="49.90764" lon="5.23298">
        <ele>385</ele>
        <time>2018-06-15T07:47:10Z</time>
      </trkpt>
      <trkpt lat="49.9077" lon="5.23323">
        <ele>387</ele>
        <time>2018-06-15T07:47:21Z</time>
      </trkpt>
      <trkpt lat="49.90774" lon="5.23342">
        <ele>388</ele>
        <time>2018-06-15T07:47:31Z</time>
      </trkpt>
      <trkpt lat="49.90779" lon="5.23366">
        <ele>388</ele>
        <time>2018-06-15T07:47:42Z</time>
      </trkpt>
      <trkpt lat="49.90785" lon="5.23388">
        <ele>389</ele>
        <time>2018-06-15T07:47:52Z</time>
      </trkpt>
      <trkpt lat="49.9079" lon="5.23413">
        <ele>390</ele>
        <time>2018-06-15T07:48:02Z</time>
      </trkpt>
      <trkpt lat="49.90796" lon="5.23439">
        <ele>390</ele>
        <time>2018-06-15T07:48:12Z</time>
      </trkpt>
      <trkpt lat="49.90802" lon="5.23466">
        <ele>390</ele>
        <time>2018-06-15T07:48:23Z</time>
      </trkpt>
      <trkpt lat="49.90806" lon="5.23491">
        <ele>392</ele>
        <time>2018-06-15T07:48:33Z</time>
      </trkpt>
      <trkpt lat="49.90812" lon="5.23515">
        <ele>392</ele>
        <time>2018-06-15T07:48:43Z</time>
      </trkpt>
      <trkpt lat="49.90817" lon="5.23541">
        <ele>393</ele>
        <time>2018-06-15T07:48:54Z</time>
      </trkpt>
      <trkpt lat="49.90823" lon="5.23566">
        <ele>393</ele>
        <time>2018-06-15T07:49:05Z</time>
      </trkpt>
      <trkpt lat="49.90826" lon="5.23587">
        <ele>394</ele>
        <time>2018-06-15T07:49:15Z</time>
      </trkpt>
      <trkpt lat="49.90831" lon="5.2361">
        <ele>394</ele>
        <time>2018-06-15T07:49:26Z</time>
      </trkpt>
      <trkpt lat="49.90837" lon="5.23634">
        <ele>394</ele>
        <time>2018-06-15T07:49:37Z</time>
      </trkpt>
      <trkpt lat="49.90841" lon="5.23656">
        <ele>394</ele>
        <time>2018-06-15T07:49:47Z</time>
      </trkpt>
      <trkpt lat="49.90846" lon="5.23679">
        <ele>394</ele>
        <time>2018-06-15T07:49:57Z</time>
      </trkpt>
      <trkpt lat="49.90854" lon="5.23717">
        <ele>394</ele>
        <time>2018-06-15T07:50:07Z</time>
      </trkpt>
      <trkpt lat="49.90861" lon="5.2376">
        <ele>394</ele>
        <time>2018-06-15T07:50:18Z</time>
      </trkpt>
      <trkpt lat="49.9087" lon="5.23795">
        <ele>393</ele>
        <time>2018-06-15T07:50:28Z</time>
      </trkpt>
      <trkpt lat="49.90877" lon="5.23832">
        <ele>394</ele>
        <time>2018-06-15T07:50:39Z</time>
      </trkpt>
      <trkpt lat="49.90881" lon="5.23863">
        <ele>393</ele>
        <time>2018-06-15T07:50:49Z</time>
      </trkpt>
      <trkpt lat="49.90882" lon="5.23883">
        <ele>393</ele>
        <time>2018-06-15T07:51:00Z</time>
      </trkpt>
      <trkpt lat="49.90884" lon="5.23893">
        <ele>393</ele>
        <time>2018-06-15T07:51:10Z</time>
      </trkpt>
      <trkpt lat="49.90892" lon="5.23891">
        <ele>392</ele>
        <time>2018-06-15T07:51:21Z</time>
      </trkpt>
      <trkpt lat="49.90899" lon="5.23891">
        <ele>392</ele>
        <time>2018-06-15T07:51:31Z</time>
      </trkpt>
      <trkpt lat="49.90909" lon="5.23887">
        <ele>391</ele>
        <time>2018-06-15T07:51:41Z</time>
      </trkpt>
      <trkpt lat="49.9093" lon="5.23883">
        <ele>390</ele>
        <time>2018-06-15T07:51:52Z</time>
      </trkpt>
      <trkpt lat="49.9095" lon="5.23874">
        <ele>389</ele>
        <time>2018-06-15T07:52:02Z</time>
      </trkpt>
      <trkpt lat="49.9097" lon="5.23864">
        <ele>388</ele>
        <time>2018-06-15T07:52:12Z</time>
      </trkpt>
      <trkpt lat="49.90992" lon="5.23851">
        <ele>387</ele>
        <time>2018-06-15T07:52:22Z</time>
      </trkpt>
      <trkpt lat="49.91014" lon="5.23836">
        <ele>385</ele>
        <time>2018-06-15T07:52:32Z</time>
      </trkpt>
      <trkpt lat="49.91035" lon="5.2381">
        <ele>384</ele>
        <time>2018-06-15T07:52:43Z</time>
      </trkpt>
      <trkpt lat="49.91053" lon="5.23783">
        <ele>384</ele>
        <time>2018-06-15T07:52:54Z</time>
      </trkpt>
      <trkpt lat="49.91066" lon="5.23759">
        <ele>382</ele>
        <time>2018-06-15T07:53:04Z</time>
      </trkpt>
      <trkpt lat="49.9108" lon="5.23731">
        <ele>382</ele>
        <time>2018-06-15T07:53:15Z</time>
      </trkpt>
      <trkpt lat="49.9109" lon="5.23705">
        <ele>382</ele>
        <time>2018-06-15T07:53:26Z</time>
      </trkpt>
      <trkpt lat="49.91095" lon="5.23684">
        <ele>383</ele>
        <time>2018-06-15T07:53:36Z</time>
      </trkpt>
      <trkpt lat="49.91099" lon="5.23663">
        <ele>383</ele>
        <time>2018-06-15T07:53:47Z</time>
      </trkpt>
      <trkpt lat="49.91105" lon="5.23645">
        <ele>384</ele>
        <time>2018-06-15T07:53:57Z</time>
      </trkpt>
      <trkpt lat="49.9111" lon="5.23626">
        <ele>384</ele>
        <time>2018-06-15T07:54:07Z</time>
      </trkpt>
      <trkpt lat="49.91114" lon="5.23607">
        <ele>385</ele>
        <time>2018-06-15T07:54:18Z</time>
      </trkpt>
      <trkpt lat="49.91118" lon="5.23592">
        <ele>385</ele>
        <time>2018-06-15T07:54:28Z</time>
      </trkpt>
      <trkpt lat="49.91124" lon="5.23588">
        <ele>385</ele>
        <time>2018-06-15T07:54:38Z</time>
      </trkpt>
      <trkpt lat="49.91134" lon="5.23584">
        <ele>386</ele>
        <time>2018-06-15T07:54:48Z</time>
      </trkpt>
      <trkpt lat="49.91144" lon="5.23582">
        <ele>386</ele>
        <time>2018-06-15T07:54:58Z</time>
      </trkpt>
      <trkpt lat="49.91158" lon="5.23576">
        <ele>387</ele>
        <time>2018-06-15T07:55:09Z</time>
      </trkpt>
      <trkpt lat="49.91172" lon="5.23581">
        <ele>387</ele>
        <time>2018-06-15T07:55:19Z</time>
      </trkpt>
      <trkpt lat="49.91185" lon="5.2359">
        <ele>387</ele>
        <time>2018-06-15T07:55:29Z</time>
      </trkpt>
      <trkpt lat="49.912" lon="5.23599">
        <ele>387</ele>
        <time>2018-06-15T07:55:40Z</time>
      </trkpt>
      <trkpt lat="49.91212" lon="5.23608">
        <ele>386</ele>
        <time>2018-06-15T07:55:50Z</time>
      </trkpt>
      <trkpt lat="49.91226" lon="5.23618">
        <ele>386</ele>
        <time>2018-06-15T07:56:01Z</time>
      </trkpt>
      <trkpt lat="49.91237" lon="5.23626">
        <ele>385</ele>
        <time>2018-06-15T07:56:11Z</time>
      </trkpt>
      <trkpt lat="49.91251" lon="5.23633">
        <ele>386</ele>
        <time>2018-06-15T07:56:22Z</time>
      </trkpt>
      <trkpt lat="49.91262" lon="5.23636">
        <ele>385</ele>
        <time>2018-06-15T07:56:32Z</time>
      </trkpt>
      <trkpt lat="49.91275" lon="5.23636">
        <ele>385</ele>
        <time>2018-06-15T07:56:43Z</time>
      </trkpt>
      <trkpt lat="49.91288" lon="5.23644">
        <ele>385</ele>
        <time>2018-06-15T07:56:54Z</time>
      </trkpt>
      <trkpt lat="49.91298" lon="5.23644">
        <ele>385</ele>
        <time>2018-06-15T07:57:05Z</time>
      </trkpt>
      <trkpt lat="49.91302" lon="5.23644">
        <ele>385</ele>
        <time>2018-06-15T07:57:16Z</time>
      </trkpt>
      <trkpt lat="49.91304" lon="5.23647">
        <ele>385</ele>
        <time>2018-06-15T07:57:26Z</time>
      </trkpt>
      <trkpt lat="49.91313" lon="5.23669">
        <ele>385</ele>
        <time>2018-06-15T07:57:37Z</time>
      </trkpt>
      <trkpt lat="49.91323" lon="5.23698">
        <ele>385</ele>
        <time>2018-06-15T07:57:47Z</time>
      </trkpt>
      <trkpt lat="49.91334" lon="5.23732">
        <ele>384</ele>
        <time>2018-06-15T07:57:58Z</time>
      </trkpt>
      <trkpt lat="49.91349" lon="5.23761">
        <ele>383</ele>
        <time>2018-06-15T07:58:08Z</time>
      </trkpt>
      <trkpt lat="49.91364" lon="5.23792">
        <ele>383</ele>
        <time>2018-06-15T07:58:19Z</time>
      </trkpt>
      <trkpt lat="49.91375" lon="5.23817">
        <ele>382</ele>
        <time>2018-06-15T07:58:29Z</time>
      </trkpt>
      <trkpt lat="49.91383" lon="5.23848">
        <ele>381</ele>
        <time>2018-06-15T07:58:39Z</time>
      </trkpt>
      <trkpt lat="49.91393" lon="5.23876">
        <ele>381</ele>
        <time>2018-06-15T07:58:50Z</time>
      </trkpt>
      <trkpt lat="49.91408" lon="5.23913">
        <ele>380</ele>
        <time>2018-06-15T07:59:01Z</time>
      </trkpt>
      <trkpt lat="49.91421" lon="5.23944">
        <ele>379</ele>
        <time>2018-06-15T07:59:12Z</time>
      </trkpt>
      <trkpt lat="49.91435" lon="5.23978">
        <ele>378</ele>
        <time>2018-06-15T07:59:22Z</time>
      </trkpt>
      <trkpt lat="49.91452" lon="5.24014">
        <ele>376</ele>
        <time>2018-06-15T07:59:33Z</time>
      </trkpt>
      <trkpt lat="49.91465" lon="5.24047">
        <ele>376</ele>
        <time>2018-06-15T07:59:43Z</time>
      </trkpt>
      <trkpt lat="49.91479" lon="5.24079">
        <ele>375</ele>
        <time>2018-06-15T07:59:53Z</time>
      </trkpt>
      <trkpt lat="49.9149" lon="5.24109">
        <ele>374</ele>
        <time>2018-06-15T08:00:03Z</time>
      </trkpt>
      <trkpt lat="49.91501" lon="5.24135">
        <ele>373</ele>
        <time>2018-06-15T08:00:14Z</time>
      </trkpt>
      <trkpt lat="49.9151" lon="5.24156">
        <ele>373</ele>
        <time>2018-06-15T08:00:24Z</time>
      </trkpt>
      <trkpt lat="49.91517" lon="5.24174">
        <ele>372</ele>
        <time>2018-06-15T08:00:34Z</time>
      </trkpt>
      <trkpt lat="49.91527" lon="5.24199">
        <ele>372</ele>
        <time>2018-06-15T08:00:44Z</time>
      </trkpt>
      <trkpt lat="49.91543" lon="5.24236">
        <ele>372</ele>
        <time>2018-06-15T08:00:55Z</time>
      </trkpt>
      <trkpt lat="49.91555" lon="5.24269">
        <ele>371</ele>
        <time>2018-06-15T08:01:05Z</time>
      </trkpt>
      <trkpt lat="49.91569" lon="5.24301">
        <ele>370</ele>
        <time>2018-06-15T08:01:15Z</time>
      </trkpt>
      <trkpt lat="49.91581" lon="5.24332">
        <ele>370</ele>
        <time>2018-06-15T08:01:25Z</time>
      </trkpt>
      <trkpt lat="49.91587" lon="5.24354">
        <ele>370</ele>
        <time>2018-06-15T08:01:36Z</time>
      </trkpt>
      <trkpt lat="49.91593" lon="5.24377">
        <ele>369</ele>
        <time>2018-06-15T08:01:47Z</time>
      </trkpt>
      <trkpt lat="49.91597" lon="5.24399">
        <ele>369</ele>
        <time>2018-06-15T08:01:57Z</time>
      </trkpt>
      <trkpt lat="49.91603" lon="5.24426">
        <ele>369</ele>
        <time>2018-06-15T08:02:08Z</time>
      </trkpt>
      <trkpt lat="49.91609" lon="5.24465">
        <ele>370</ele>
        <time>2018-06-15T08:02:19Z</time>
      </trkpt>
      <trkpt lat="49.91615" lon="5.245">
        <ele>369</ele>
        <time>2018-06-15T08:02:29Z</time>
      </trkpt>
      <trkpt lat="49.9162" lon="5.24535">
        <ele>369</ele>
        <time>2018-06-15T08:02:39Z</time>
      </trkpt>
      <trkpt lat="49.91627" lon="5.24573">
        <ele>369</ele>
        <time>2018-06-15T08:02:50Z</time>
      </trkpt>
      <trkpt lat="49.91633" lon="5.24607">
        <ele>369</ele>
        <time>2018-06-15T08:03:00Z</time>
      </trkpt>
      <trkpt lat="49.91642" lon="5.24645">
        <ele>368</ele>
        <time>2018-06-15T08:03:11Z</time>
      </trkpt>
      <trkpt lat="49.91651" lon="5.2468">
        <ele>368</ele>
        <time>2018-06-15T08:03:22Z</time>
      </trkpt>
      <trkpt lat="49.91663" lon="5.24716">
        <ele>369</ele>
        <time>2018-06-15T08:03:33Z</time>
      </trkpt>
      <trkpt lat="49.91671" lon="5.24749">
        <ele>369</ele>
        <time>2018-06-15T08:03:43Z</time>
      </trkpt>
      <trkpt lat="49.91681" lon="5.24784">
        <ele>368</ele>
        <time>2018-06-15T08:03:54Z</time>
      </trkpt>
      <trkpt lat="49.91692" lon="5.24818">
        <ele>369</ele>
        <time>2018-06-15T08:04:05Z</time>
      </trkpt>
      <trkpt lat="49.91701" lon="5.24847">
        <ele>369</ele>
        <time>2018-06-15T08:04:15Z</time>
      </trkpt>
      <trkpt lat="49.91712" lon="5.2488">
        <ele>368</ele>
        <time>2018-06-15T08:04:26Z</time>
      </trkpt>
      <trkpt lat="49.91724" lon="5.24912">
        <ele>369</ele>
        <time>2018-06-15T08:04:37Z</time>
      </trkpt>
      <trkpt lat="49.91736" lon="5.24944">
        <ele>368</ele>
        <time>2018-06-15T08:04:47Z</time>
      </trkpt>
      <trkpt lat="49.91745" lon="5.2497">
        <ele>368</ele>
        <time>2018-06-15T08:04:57Z</time>
      </trkpt>
      <trkpt lat="49.91752" lon="5.24991">
        <ele>367</ele>
        <time>2018-06-15T08:05:08Z</time>
      </trkpt>
      <trkpt lat="49.91756" lon="5.25011">
        <ele>366</ele>
        <time>2018-06-15T08:05:19Z</time>
      </trkpt>
      <trkpt lat="49.91752" lon="5.25023">
        <ele>366</ele>
        <time>2018-06-15T08:05:29Z</time>
      </trkpt>
      <trkpt lat="49.91752" lon="5.25026">
        <ele>366</ele>
        <time>2018-06-15T08:05:40Z</time>
      </trkpt>
      <trkpt lat="49.91752" lon="5.25028">
        <ele>366</ele>
        <time>2018-06-15T08:05:50Z</time>
      </trkpt>
      <trkpt lat="49.91751" lon="5.25028">
        <ele>367</ele>
        <time>2018-06-15T08:06:00Z</time>
      </trkpt>
      <trkpt lat="49.9175" lon="5.25028">
        <ele>366</ele>
        <time>2018-06-15T08:06:11Z</time>
      </trkpt>
      <trkpt lat="49.91749" lon="5.25028">
        <ele>366</ele>
        <time>2018-06-15T08:06:21Z</time>
      </trkpt>
      <trkpt lat="49.91749" lon="5.25027">
        <ele>366</ele>
        <time>2018-06-15T08:06:33Z</time>
      </trkpt>
      <trkpt lat="49.91749" lon="5.25026">
        <ele>366</ele>
        <time>2018-06-15T08:06:45Z</time>
      </trkpt>
      <trkpt lat="49.91748" lon="5.25026">
        <ele>366</ele>
        <time>2018-06-15T08:06:55Z</time>
      </trkpt>
      <trkpt lat="49.91748" lon="5.25026">
        <ele>367</ele>
        <time>2018-06-15T08:07:05Z</time>
      </trkpt>
      <trkpt lat="49.91748" lon="5.25026">
        <ele>366</ele>
        <time>2018-06-15T08:07:16Z</time>
      </trkpt>
      <trkpt lat="49.91748" lon="5.25026">
        <ele>366</ele>
        <time>2018-06-15T08:07:27Z</time>
      </trkpt>
      <trkpt lat="49.91746" lon="5.25025">
        <ele>366</ele>
        <time>2018-06-15T08:07:37Z</time>
      </trkpt>
      <trkpt lat="49.91729" lon="5.2505">
        <ele>367</ele>
        <time>2018-06-15T08:07:48Z</time>
      </trkpt>
      <trkpt lat="49.91716" lon="5.25078">
        <ele>367</ele>
        <time>2018-06-15T08:07:58Z</time>
      </trkpt>
      <trkpt lat="49.917" lon="5.25103">
        <ele>366</ele>
        <time>2018-06-15T08:08:08Z</time>
      </trkpt>
      <trkpt lat="49.91686" lon="5.25129">
        <ele>366</ele>
        <time>2018-06-15T08:08:18Z</time>
      </trkpt>
      <trkpt lat="49.91671" lon="5.25157">
        <ele>366</ele>
        <time>2018-06-15T08:08:29Z</time>
      </trkpt>
      <trkpt lat="49.91654" lon="5.25186">
        <ele>365</ele>
        <time>2018-06-15T08:08:40Z</time>
      </trkpt>
      <trkpt lat="49.91639" lon="5.25211">
        <ele>366</ele>
        <time>2018-06-15T08:08:50Z</time>
      </trkpt>
      <trkpt lat="49.91625" lon="5.25238">
        <ele>366</ele>
        <time>2018-06-15T08:09:01Z</time>
      </trkpt>
      <trkpt lat="49.91611" lon="5.25268">
        <ele>367</ele>
        <time>2018-06-15T08:09:12Z</time>
      </trkpt>
      <trkpt lat="49.916" lon="5.25292">
        <ele>367</ele>
        <time>2018-06-15T08:09:22Z</time>
      </trkpt>
      <trkpt lat="49.91586" lon="5.25318">
        <ele>368</ele>
        <time>2018-06-15T08:09:32Z</time>
      </trkpt>
      <trkpt lat="49.91573" lon="5.25345">
        <ele>368</ele>
        <time>2018-06-15T08:09:43Z</time>
      </trkpt>
      <trkpt lat="49.9156" lon="5.25375">
        <ele>367</ele>
        <time>2018-06-15T08:09:54Z</time>
      </trkpt>
      <trkpt lat="49.9155" lon="5.25399">
        <ele>368</ele>
        <time>2018-06-15T08:10:04Z</time>
      </trkpt>
      <trkpt lat="49.91542" lon="5.25419">
        <ele>368</ele>
        <time>2018-06-15T08:10:15Z</time>
      </trkpt>
      <trkpt lat="49.91536" lon="5.25434">
        <ele>368</ele>
        <time>2018-06-15T08:10:25Z</time>
      </trkpt>
      <trkpt lat="49.91532" lon="5.2545">
        <ele>368</ele>
        <time>2018-06-15T08:10:35Z</time>
      </trkpt>
      <trkpt lat="49.91526" lon="5.25466">
        <ele>369</ele>
        <time>2018-06-15T08:10:46Z</time>
      </trkpt>
      <trkpt lat="49.9152" lon="5.25481">
        <ele>370</ele>
        <time>2018-06-15T08:10:56Z</time>
      </trkpt>
      <trkpt lat="49.91513" lon="5.25501">
        <ele>371</ele>
        <time>2018-06-15T08:11:07Z</time>
      </trkpt>
      <trkpt lat="49.91506" lon="5.2552">
        <ele>373</ele>
        <time>2018-06-15T08:11:18Z</time>
      </trkpt>
      <trkpt lat="49.915" lon="5.2554">
        <ele>374</ele>
        <time>2018-06-15T08:11:28Z</time>
      </trkpt>
      <trkpt lat="49.91493" lon="5.25559">
        <ele>375</ele>
        <time>2018-06-15T08:11:38Z</time>
      </trkpt>
      <trkpt lat="49.91486" lon="5.25579">
        <ele>376</ele>
        <time>2018-06-15T08:11:49Z</time>
      </trkpt>
      <trkpt lat="49.91481" lon="5.25599">
        <ele>378</ele>
        <time>2018-06-15T08:11:59Z</time>
      </trkpt>
      <trkpt lat="49.91473" lon="5.25622">
        <ele>380</ele>
        <time>2018-06-15T08:12:10Z</time>
      </trkpt>
      <trkpt lat="49.91464" lon="5.25643">
        <ele>381</ele>
        <time>2018-06-15T08:12:21Z</time>
      </trkpt>
      <trkpt lat="49.91453" lon="5.25663">
        <ele>382</ele>
        <time>2018-06-15T08:12:32Z</time>
      </trkpt>
      <trkpt lat="49.91444" lon="5.25677">
        <ele>384</ele>
        <time>2018-06-15T08:12:42Z</time>
      </trkpt>
      <trkpt lat="49.91435" lon="5.25691">
        <ele>385</ele>
        <time>2018-06-15T08:12:53Z</time>
      </trkpt>
      <trkpt lat="49.91426" lon="5.25704">
        <ele>386</ele>
        <time>2018-06-15T08:13:03Z</time>
      </trkpt>
      <trkpt lat="49.91418" lon="5.25715">
        <ele>387</ele>
        <time>2018-06-15T08:13:13Z</time>
      </trkpt>
      <trkpt lat="49.91412" lon="5.25732">
        <ele>388</ele>
        <time>2018-06-15T08:13:24Z</time>
      </trkpt>
      <trkpt lat="49.91406" lon="5.25752">
        <ele>388</ele>
        <time>2018-06-15T08:13:34Z</time>
      </trkpt>
      <trkpt lat="49.91398" lon="5.25785">
        <ele>389</ele>
        <time>2018-06-15T08:13:45Z</time>
      </trkpt>
      <trkpt lat="49.91383" lon="5.25818">
        <ele>389</ele>
        <time>2018-06-15T08:13:56Z</time>
      </trkpt>
      <trkpt lat="49.91372" lon="5.25849">
        <ele>390</ele>
        <time>2018-06-15T08:14:07Z</time>
      </trkpt>
      <trkpt lat="49.91362" lon="5.25873">
        <ele>390</ele>
        <time>2018-06-15T08:14:17Z</time>
      </trkpt>
      <trkpt lat="49.91353" lon="5.25902">
        <ele>391</ele>
        <time>2018-06-15T08:14:28Z</time>
      </trkpt>
      <trkpt lat="49.91345" lon="5.25929">
        <ele>391</ele>
        <time>2018-06-15T08:14:38Z</time>
      </trkpt>
      <trkpt lat="49.91337" lon="5.25955">
        <ele>392</ele>
        <time>2018-06-15T08:14:49Z</time>
      </trkpt>
      <trkpt lat="49.91331" lon="5.25976">
        <ele>393</ele>
        <time>2018-06-15T08:14:59Z</time>
      </trkpt>
      <trkpt lat="49.91325" lon="5.25996">
        <ele>394</ele>
        <time>2018-06-15T08:15:09Z</time>
      </trkpt>
      <trkpt lat="49.91319" lon="5.26016">
        <ele>394</ele>
        <time>2018-06-15T08:15:19Z</time>
      </trkpt>
      <trkpt lat="49.91309" lon="5.26031">
        <ele>395</ele>
        <time>2018-06-15T08:15:29Z</time>
      </trkpt>
      <trkpt lat="49.91297" lon="5.26045">
        <ele>395</ele>
        <time>2018-06-15T08:15:40Z</time>
      </trkpt>
      <trkpt lat="49.91276" lon="5.26065">
        <ele>395</ele>
        <time>2018-06-15T08:15:51Z</time>
      </trkpt>
      <trkpt lat="49.91252" lon="5.26082">
        <ele>393</ele>
        <time>2018-06-15T08:16:01Z</time>
      </trkpt>
      <trkpt lat="49.91233" lon="5.26103">
        <ele>392</ele>
        <time>2018-06-15T08:16:11Z</time>
      </trkpt>
      <trkpt lat="49.91215" lon="5.2612">
        <ele>390</ele>
        <time>2018-06-15T08:16:22Z</time>
      </trkpt>
      <trkpt lat="49.91199" lon="5.26133">
        <ele>389</ele>
        <time>2018-06-15T08:16:32Z</time>
      </trkpt>
      <trkpt lat="49.91183" lon="5.26151">
        <ele>387</ele>
        <time>2018-06-15T08:16:43Z</time>
      </trkpt>
      <trkpt lat="49.91166" lon="5.26171">
        <ele>385</ele>
        <time>2018-06-15T08:16:54Z</time>
      </trkpt>
      <trkpt lat="49.91156" lon="5.26191">
        <ele>384</ele>
        <time>2018-06-15T08:17:04Z</time>
      </trkpt>
      <trkpt lat="49.9115" lon="5.26211">
        <ele>385</ele>
        <time>2018-06-15T08:17:14Z</time>
      </trkpt>
      <trkpt lat="49.91145" lon="5.26232">
        <ele>385</ele>
        <time>2018-06-15T08:17:24Z</time>
      </trkpt>
      <trkpt lat="49.91141" lon="5.26257">
        <ele>385</ele>
        <time>2018-06-15T08:17:35Z</time>
      </trkpt>
      <trkpt lat="49.91138" lon="5.26283">
        <ele>386</ele>
        <time>2018-06-15T08:17:46Z</time>
      </trkpt>
      <trkpt lat="49.91137" lon="5.26309">
        <ele>386</ele>
        <time>2018-06-15T08:17:57Z</time>
      </trkpt>
      <trkpt lat="49.91137" lon="5.26335">
        <ele>387</ele>
        <time>2018-06-15T08:18:08Z</time>
      </trkpt>
      <trkpt lat="49.91138" lon="5.2636">
        <ele>388</ele>
        <time>2018-06-15T08:18:19Z</time>
      </trkpt>
      <trkpt lat="49.91137" lon="5.26383">
        <ele>388</ele>
        <time>2018-06-15T08:18:29Z</time>
      </trkpt>
      <trkpt lat="49.91137" lon="5.26405">
        <ele>389</ele>
        <time>2018-06-15T08:18:39Z</time>
      </trkpt>
      <trkpt lat="49.91137" lon="5.2643">
        <ele>389</ele>
        <time>2018-06-15T08:18:50Z</time>
      </trkpt>
      <trkpt lat="49.91138" lon="5.26454">
        <ele>390</ele>
        <time>2018-06-15T08:19:01Z</time>
      </trkpt>
      <trkpt lat="49.91137" lon="5.26478">
        <ele>390</ele>
        <time>2018-06-15T08:19:11Z</time>
      </trkpt>
      <trkpt lat="49.91137" lon="5.26499">
        <ele>391</ele>
        <time>2018-06-15T08:19:21Z</time>
      </trkpt>
      <trkpt lat="49.91137" lon="5.2652">
        <ele>392</ele>
        <time>2018-06-15T08:19:31Z</time>
      </trkpt>
      <trkpt lat="49.91135" lon="5.26549">
        <ele>393</ele>
        <time>2018-06-15T08:19:42Z</time>
      </trkpt>
      <trkpt lat="49.91135" lon="5.26571">
        <ele>394</ele>
        <time>2018-06-15T08:19:52Z</time>
      </trkpt>
      <trkpt lat="49.91134" lon="5.26593">
        <ele>394</ele>
        <time>2018-06-15T08:20:02Z</time>
      </trkpt>
      <trkpt lat="49.91133" lon="5.26617">
        <ele>396</ele>
        <time>2018-06-15T08:20:13Z</time>
      </trkpt>
      <trkpt lat="49.91132" lon="5.26642">
        <ele>397</ele>
        <time>2018-06-15T08:20:24Z</time>
      </trkpt>
      <trkpt lat="49.91131" lon="5.26665">
        <ele>398</ele>
        <time>2018-06-15T08:20:35Z</time>
      </trkpt>
      <trkpt lat="49.91131" lon="5.26684">
        <ele>398</ele>
        <time>2018-06-15T08:20:45Z</time>
      </trkpt>
      <trkpt lat="49.91134" lon="5.26705">
        <ele>399</ele>
        <time>2018-06-15T08:20:55Z</time>
      </trkpt>
      <trkpt lat="49.91134" lon="5.26731">
        <ele>399</ele>
        <time>2018-06-15T08:21:06Z</time>
      </trkpt>
      <trkpt lat="49.91134" lon="5.26754">
        <ele>400</ele>
        <time>2018-06-15T08:21:16Z</time>
      </trkpt>
      <trkpt lat="49.91135" lon="5.26774">
        <ele>400</ele>
        <time>2018-06-15T08:21:26Z</time>
      </trkpt>
      <trkpt lat="49.91135" lon="5.26793">
        <ele>400</ele>
        <time>2018-06-15T08:21:36Z</time>
      </trkpt>
      <trkpt lat="49.91135" lon="5.26818">
        <ele>400</ele>
        <time>2018-06-15T08:21:47Z</time>
      </trkpt>
      <trkpt lat="49.91132" lon="5.26837">
        <ele>400</ele>
        <time>2018-06-15T08:21:57Z</time>
      </trkpt>
      <trkpt lat="49.91127" lon="5.26859">
        <ele>401</ele>
        <time>2018-06-15T08:22:07Z</time>
      </trkpt>
      <trkpt lat="49.91118" lon="5.26881">
        <ele>401</ele>
        <time>2018-06-15T08:22:18Z</time>
      </trkpt>
      <trkpt lat="49.91108" lon="5.26904">
        <ele>401</ele>
        <time>2018-06-15T08:22:29Z</time>
      </trkpt>
      <trkpt lat="49.91101" lon="5.26922">
        <ele>401</ele>
        <time>2018-06-15T08:22:39Z</time>
      </trkpt>
      <trkpt lat="49.91096" lon="5.26943">
        <ele>401</ele>
        <time>2018-06-15T08:22:49Z</time>
      </trkpt>
      <trkpt lat="49.9109" lon="5.26966">
        <ele>401</ele>
        <time>2018-06-15T08:23:00Z</time>
      </trkpt>
      <trkpt lat="49.91086" lon="5.26988">
        <ele>401</ele>
        <time>2018-06-15T08:23:10Z</time>
      </trkpt>
      <trkpt lat="49.91083" lon="5.27011">
        <ele>400</ele>
        <time>2018-06-15T08:23:21Z</time>
      </trkpt>
      <trkpt lat="49.9108" lon="5.27032">
        <ele>400</ele>
        <time>2018-06-15T08:23:31Z</time>
      </trkpt>
      <trkpt lat="49.91078" lon="5.27052">
        <ele>399</ele>
        <time>2018-06-15T08:23:41Z</time>
      </trkpt>
      <trkpt lat="49.91077" lon="5.27074">
        <ele>399</ele>
        <time>2018-06-15T08:23:51Z</time>
      </trkpt>
      <trkpt lat="49.91075" lon="5.27096">
        <ele>399</ele>
        <time>2018-06-15T08:24:01Z</time>
      </trkpt>
      <trkpt lat="49.91074" lon="5.27118">
        <ele>398</ele>
        <time>2018-06-15T08:24:12Z</time>
      </trkpt>
      <trkpt lat="49.91073" lon="5.27144">
        <ele>398</ele>
        <time>2018-06-15T08:24:22Z</time>
      </trkpt>
      <trkpt lat="49.9107" lon="5.27176">
        <ele>398</ele>
        <time>2018-06-15T08:24:32Z</time>
      </trkpt>
      <trkpt lat="49.91066" lon="5.27212">
        <ele>398</ele>
        <time>2018-06-15T08:24:43Z</time>
      </trkpt>
      <trkpt lat="49.91065" lon="5.27244">
        <ele>398</ele>
        <time>2018-06-15T08:24:53Z</time>
      </trkpt>
      <trkpt lat="49.91064" lon="5.27276">
        <ele>398</ele>
        <time>2018-06-15T08:25:03Z</time>
      </trkpt>
      <trkpt lat="49.91061" lon="5.27304">
        <ele>398</ele>
        <time>2018-06-15T08:25:14Z</time>
      </trkpt>
      <trkpt lat="49.91056" lon="5.27328">
        <ele>399</ele>
        <time>2018-06-15T08:25:24Z</time>
      </trkpt>
      <trkpt lat="49.91053" lon="5.27359">
        <ele>399</ele>
        <time>2018-06-15T08:25:34Z</time>
      </trkpt>
      <trkpt lat="49.91056" lon="5.27389">
        <ele>400</ele>
        <time>2018-06-15T08:25:45Z</time>
      </trkpt>
      <trkpt lat="49.91059" lon="5.27416">
        <ele>401</ele>
        <time>2018-06-15T08:25:55Z</time>
      </trkpt>
      <trkpt lat="49.91061" lon="5.2744">
        <ele>401</ele>
        <time>2018-06-15T08:26:05Z</time>
      </trkpt>
      <trkpt lat="49.91061" lon="5.27466">
        <ele>402</ele>
        <time>2018-06-15T08:26:16Z</time>
      </trkpt>
      <trkpt lat="49.91061" lon="5.27489">
        <ele>403</ele>
        <time>2018-06-15T08:26:26Z</time>
      </trkpt>
      <trkpt lat="49.91061" lon="5.27514">
        <ele>403</ele>
        <time>2018-06-15T08:26:36Z</time>
      </trkpt>
      <trkpt lat="49.91058" lon="5.27539">
        <ele>403</ele>
        <time>2018-06-15T08:26:46Z</time>
      </trkpt>
      <trkpt lat="49.91055" lon="5.27572">
        <ele>402</ele>
        <time>2018-06-15T08:26:57Z</time>
      </trkpt>
      <trkpt lat="49.91048" lon="5.27596">
        <ele>400</ele>
        <time>2018-06-15T08:27:08Z</time>
      </trkpt>
      <trkpt lat="49.91038" lon="5.27604">
        <ele>401</ele>
        <time>2018-06-15T08:27:18Z</time>
      </trkpt>
      <trkpt lat="49.91022" lon="5.27606">
        <ele>401</ele>
        <time>2018-06-15T08:27:29Z</time>
      </trkpt>
      <trkpt lat="49.91005" lon="5.27606">
        <ele>402</ele>
        <time>2018-06-15T08:27:40Z</time>
      </trkpt>
      <trkpt lat="49.9099" lon="5.27606">
        <ele>403</ele>
        <time>2018-06-15T08:27:51Z</time>
      </trkpt>
      <trkpt lat="49.90976" lon="5.27602">
        <ele>403</ele>
        <time>2018-06-15T08:28:01Z</time>
      </trkpt>
      <trkpt lat="49.90961" lon="5.27597">
        <ele>404</ele>
        <time>2018-06-15T08:28:11Z</time>
      </trkpt>
      <trkpt lat="49.90946" lon="5.27592">
        <ele>403</ele>
        <time>2018-06-15T08:28:21Z</time>
      </trkpt>
      <trkpt lat="49.9093" lon="5.27587">
        <ele>404</ele>
        <time>2018-06-15T08:28:32Z</time>
      </trkpt>
      <trkpt lat="49.90916" lon="5.27582">
        <ele>404</ele>
        <time>2018-06-15T08:28:42Z</time>
      </trkpt>
      <trkpt lat="49.90899" lon="5.27578">
        <ele>404</ele>
        <time>2018-06-15T08:28:52Z</time>
      </trkpt>
      <trkpt lat="49.90881" lon="5.27573">
        <ele>404</ele>
        <time>2018-06-15T08:29:03Z</time>
      </trkpt>
      <trkpt lat="49.90866" lon="5.27567">
        <ele>405</ele>
        <time>2018-06-15T08:29:13Z</time>
      </trkpt>
      <trkpt lat="49.9085" lon="5.27561">
        <ele>405</ele>
        <time>2018-06-15T08:29:23Z</time>
      </trkpt>
      <trkpt lat="49.90833" lon="5.27554">
        <ele>405</ele>
        <time>2018-06-15T08:29:33Z</time>
      </trkpt>
      <trkpt lat="49.90818" lon="5.27549">
        <ele>405</ele>
        <time>2018-06-15T08:29:44Z</time>
      </trkpt>
      <trkpt lat="49.90803" lon="5.27545">
        <ele>406</ele>
        <time>2018-06-15T08:29:54Z</time>
      </trkpt>
      <trkpt lat="49.9079" lon="5.27541">
        <ele>406</ele>
        <time>2018-06-15T08:30:04Z</time>
      </trkpt>
      <trkpt lat="49.90775" lon="5.27536">
        <ele>406</ele>
        <time>2018-06-15T08:30:15Z</time>
      </trkpt>
      <trkpt lat="49.90761" lon="5.27532">
        <ele>407</ele>
        <time>2018-06-15T08:30:25Z</time>
      </trkpt>
      <trkpt lat="49.90746" lon="5.27528">
        <ele>407</ele>
        <time>2018-06-15T08:30:36Z</time>
      </trkpt>
      <trkpt lat="49.9073" lon="5.27523">
        <ele>408</ele>
        <time>2018-06-15T08:30:47Z</time>
      </trkpt>
      <trkpt lat="49.90715" lon="5.27518">
        <ele>408</ele>
        <time>2018-06-15T08:30:57Z</time>
      </trkpt>
      <trkpt lat="49.907" lon="5.27514">
        <ele>409</ele>
        <time>2018-06-15T08:31:08Z</time>
      </trkpt>
      <trkpt lat="49.90685" lon="5.2751">
        <ele>410</ele>
        <time>2018-06-15T08:31:19Z</time>
      </trkpt>
      <trkpt lat="49.9067" lon="5.27505">
        <ele>410</ele>
        <time>2018-06-15T08:31:29Z</time>
      </trkpt>
      <trkpt lat="49.90652" lon="5.27501">
        <ele>411</ele>
        <time>2018-06-15T08:31:40Z</time>
      </trkpt>
      <trkpt lat="49.90638" lon="5.27495">
        <ele>411</ele>
        <time>2018-06-15T08:31:50Z</time>
      </trkpt>
      <trkpt lat="49.90623" lon="5.27489">
        <ele>412</ele>
        <time>2018-06-15T08:32:00Z</time>
      </trkpt>
      <trkpt lat="49.90608" lon="5.27485">
        <ele>413</ele>
        <time>2018-06-15T08:32:11Z</time>
      </trkpt>
      <trkpt lat="49.90595" lon="5.2748">
        <ele>413</ele>
        <time>2018-06-15T08:32:21Z</time>
      </trkpt>
      <trkpt lat="49.90578" lon="5.27474">
        <ele>414</ele>
        <time>2018-06-15T08:32:32Z</time>
      </trkpt>
      <trkpt lat="49.90563" lon="5.27468">
        <ele>414</ele>
        <time>2018-06-15T08:32:42Z</time>
      </trkpt>
      <trkpt lat="49.90549" lon="5.27457">
        <ele>414</ele>
        <time>2018-06-15T08:32:53Z</time>
      </trkpt>
      <trkpt lat="49.9054" lon="5.27425">
        <ele>413</ele>
        <time>2018-06-15T08:33:03Z</time>
      </trkpt>
      <trkpt lat="49.90533" lon="5.27388">
        <ele>413</ele>
        <time>2018-06-15T08:33:14Z</time>
      </trkpt>
      <trkpt lat="49.90532" lon="5.27353">
        <ele>414</ele>
        <time>2018-06-15T08:33:24Z</time>
      </trkpt>
      <trkpt lat="49.90533" lon="5.27318">
        <ele>414</ele>
        <time>2018-06-15T08:33:34Z</time>
      </trkpt>
      <trkpt lat="49.90539" lon="5.27286">
        <ele>413</ele>
        <time>2018-06-15T08:33:45Z</time>
      </trkpt>
      <trkpt lat="49.90549" lon="5.27258">
        <ele>413</ele>
        <time>2018-06-15T08:33:56Z</time>
      </trkpt>
      <trkpt lat="49.90557" lon="5.2723">
        <ele>413</ele>
        <time>2018-06-15T08:34:06Z</time>
      </trkpt>
      <trkpt lat="49.90564" lon="5.27192">
        <ele>413</ele>
        <time>2018-06-15T08:34:17Z</time>
      </trkpt>
      <trkpt lat="49.90571" lon="5.27162">
        <ele>414</ele>
        <time>2018-06-15T08:34:27Z</time>
      </trkpt>
      <trkpt lat="49.90575" lon="5.27132">
        <ele>414</ele>
        <time>2018-06-15T08:34:37Z</time>
      </trkpt>
      <trkpt lat="49.90573" lon="5.271">
        <ele>414</ele>
        <time>2018-06-15T08:34:47Z</time>
      </trkpt>
      <trkpt lat="49.90573" lon="5.27069">
        <ele>413</ele>
        <time>2018-06-15T08:34:57Z</time>
      </trkpt>
      <trkpt lat="49.90574" lon="5.27039">
        <ele>412</ele>
        <time>2018-06-15T08:35:08Z</time>
      </trkpt>
      <trkpt lat="49.90576" lon="5.27002">
        <ele>411</ele>
        <time>2018-06-15T08:35:19Z</time>
      </trkpt>
      <trkpt lat="49.90573" lon="5.26966">
        <ele>411</ele>
        <time>2018-06-15T08:35:30Z</time>
      </trkpt>
      <trkpt lat="49.90578" lon="5.26939">
        <ele>410</ele>
        <time>2018-06-15T08:35:40Z</time>
      </trkpt>
      <trkpt lat="49.90586" lon="5.2691">
        <ele>410</ele>
        <time>2018-06-15T08:35:50Z</time>
      </trkpt>
      <trkpt lat="49.90596" lon="5.26883">
        <ele>408</ele>
        <time>2018-06-15T08:36:00Z</time>
      </trkpt>
      <trkpt lat="49.90597" lon="5.26848">
        <ele>408</ele>
        <time>2018-06-15T08:36:11Z</time>
      </trkpt>
      <trkpt lat="49.90591" lon="5.26814">
        <ele>407</ele>
        <time>2018-06-15T08:36:21Z</time>
      </trkpt>
      <trkpt lat="49.90582" lon="5.26783">
        <ele>406</ele>
        <time>2018-06-15T08:36:31Z</time>
      </trkpt>
      <trkpt lat="49.90573" lon="5.26761">
        <ele>405</ele>
        <time>2018-06-15T08:36:41Z</time>
      </trkpt>
      <trkpt lat="49.90562" lon="5.26741">
        <ele>404</ele>
        <time>2018-06-15T08:36:51Z</time>
      </trkpt>
      <trkpt lat="49.90554" lon="5.26715">
        <ele>403</ele>
        <time>2018-06-15T08:37:01Z</time>
      </trkpt>
      <trkpt lat="49.90542" lon="5.26687">
        <ele>401</ele>
        <time>2018-06-15T08:37:12Z</time>
      </trkpt>
      <trkpt lat="49.90531" lon="5.26661">
        <ele>398</ele>
        <time>2018-06-15T08:37:23Z</time>
      </trkpt>
      <trkpt lat="49.90518" lon="5.26635">
        <ele>397</ele>
        <time>2018-06-15T08:37:33Z</time>
      </trkpt>
      <trkpt lat="49.90503" lon="5.26607">
        <ele>396</ele>
        <time>2018-06-15T08:37:44Z</time>
      </trkpt>
      <trkpt lat="49.90489" lon="5.26582">
        <ele>395</ele>
        <time>2018-06-15T08:37:55Z</time>
      </trkpt>
      <trkpt lat="49.90474" lon="5.26552">
        <ele>393</ele>
        <time>2018-06-15T08:38:06Z</time>
      </trkpt>
      <trkpt lat="49.9046" lon="5.26518">
        <ele>392</ele>
        <time>2018-06-15T08:38:16Z</time>
      </trkpt>
      <trkpt lat="49.90446" lon="5.26489">
        <ele>390</ele>
        <time>2018-06-15T08:38:26Z</time>
      </trkpt>
      <trkpt lat="49.90435" lon="5.26458">
        <ele>389</ele>
        <time>2018-06-15T08:38:36Z</time>
      </trkpt>
      <trkpt lat="49.90427" lon="5.26428">
        <ele>388</ele>
        <time>2018-06-15T08:38:47Z</time>
      </trkpt>
      <trkpt lat="49.90423" lon="5.26404">
        <ele>388</ele>
        <time>2018-06-15T08:38:57Z</time>
      </trkpt>
      <trkpt lat="49.90418" lon="5.26377">
        <ele>388</ele>
        <time>2018-06-15T08:39:08Z</time>
      </trkpt>
      <trkpt lat="49.90413" lon="5.26352">
        <ele>388</ele>
        <time>2018-06-15T08:39:18Z</time>
      </trkpt>
      <trkpt lat="49.90406" lon="5.26322">
        <ele>389</ele>
        <time>2018-06-15T08:39:29Z</time>
      </trkpt>
      <trkpt lat="49.90402" lon="5.26298">
        <ele>389</ele>
        <time>2018-06-15T08:39:39Z</time>
      </trkpt>
      <trkpt lat="49.90394" lon="5.26269">
        <ele>389</ele>
        <time>2018-06-15T08:39:50Z</time>
      </trkpt>
      <trkpt lat="49.90385" lon="5.26244">
        <ele>390</ele>
        <time>2018-06-15T08:40:01Z</time>
      </trkpt>
      <trkpt lat="49.90375" lon="5.26234">
        <ele>390</ele>
        <time>2018-06-15T08:40:11Z</time>
      </trkpt>
      <trkpt lat="49.90365" lon="5.26227">
        <ele>391</ele>
        <time>2018-06-15T08:40:22Z</time>
      </trkpt>
      <trkpt lat="49.90352" lon="5.26231">
        <ele>391</ele>
        <time>2018-06-15T08:40:33Z</time>
      </trkpt>
      <trkpt lat="49.90336" lon="5.26234">
        <ele>391</ele>
        <time>2018-06-15T08:40:44Z</time>
      </trkpt>
      <trkpt lat="49.9032" lon="5.26232">
        <ele>391</ele>
        <time>2018-06-15T08:40:55Z</time>
      </trkpt>
      <trkpt lat="49.90305" lon="5.26228">
        <ele>391</ele>
        <time>2018-06-15T08:41:05Z</time>
      </trkpt>
      <trkpt lat="49.90289" lon="5.26224">
        <ele>391</ele>
        <time>2018-06-15T08:41:16Z</time>
      </trkpt>
      <trkpt lat="49.90276" lon="5.26219">
        <ele>392</ele>
        <time>2018-06-15T08:41:27Z</time>
      </trkpt>
      <trkpt lat="49.90261" lon="5.26213">
        <ele>392</ele>
        <time>2018-06-15T08:41:38Z</time>
      </trkpt>
      <trkpt lat="49.90245" lon="5.26207">
        <ele>391</ele>
        <time>2018-06-15T08:41:48Z</time>
      </trkpt>
      <trkpt lat="49.90228" lon="5.26203">
        <ele>392</ele>
        <time>2018-06-15T08:41:59Z</time>
      </trkpt>
      <trkpt lat="49.9021" lon="5.26198">
        <ele>391</ele>
        <time>2018-06-15T08:42:10Z</time>
      </trkpt>
      <trkpt lat="49.90196" lon="5.26196">
        <ele>392</ele>
        <time>2018-06-15T08:42:20Z</time>
      </trkpt>
      <trkpt lat="49.90182" lon="5.26198">
        <ele>393</ele>
        <time>2018-06-15T08:42:30Z</time>
      </trkpt>
      <trkpt lat="49.90169" lon="5.26203">
        <ele>394</ele>
        <time>2018-06-15T08:42:41Z</time>
      </trkpt>
      <trkpt lat="49.90158" lon="5.26208">
        <ele>394</ele>
        <time>2018-06-15T08:42:51Z</time>
      </trkpt>
      <trkpt lat="49.90145" lon="5.26214">
        <ele>395</ele>
        <time>2018-06-15T08:43:02Z</time>
      </trkpt>
      <trkpt lat="49.90132" lon="5.26219">
        <ele>396</ele>
        <time>2018-06-15T08:43:12Z</time>
      </trkpt>
      <trkpt lat="49.90117" lon="5.26224">
        <ele>396</ele>
        <time>2018-06-15T08:43:23Z</time>
      </trkpt>
      <trkpt lat="49.90104" lon="5.26226">
        <ele>397</ele>
        <time>2018-06-15T08:43:33Z</time>
      </trkpt>
      <trkpt lat="49.9009" lon="5.26227">
        <ele>398</ele>
        <time>2018-06-15T08:43:43Z</time>
      </trkpt>
      <trkpt lat="49.90074" lon="5.26225">
        <ele>399</ele>
        <time>2018-06-15T08:43:54Z</time>
      </trkpt>
      <trkpt lat="49.9006" lon="5.2622">
        <ele>400</ele>
        <time>2018-06-15T08:44:05Z</time>
      </trkpt>
      <trkpt lat="49.90048" lon="5.26212">
        <ele>401</ele>
        <time>2018-06-15T08:44:15Z</time>
      </trkpt>
      <trkpt lat="49.90037" lon="5.26203">
        <ele>402</ele>
        <time>2018-06-15T08:44:25Z</time>
      </trkpt>
      <trkpt lat="49.90024" lon="5.26195">
        <ele>402</ele>
        <time>2018-06-15T08:44:35Z</time>
      </trkpt>
      <trkpt lat="49.90012" lon="5.2619">
        <ele>403</ele>
        <time>2018-06-15T08:44:45Z</time>
      </trkpt>
      <trkpt lat="49.89998" lon="5.26188">
        <ele>403</ele>
        <time>2018-06-15T08:44:55Z</time>
      </trkpt>
      <trkpt lat="49.89983" lon="5.26188">
        <ele>404</ele>
        <time>2018-06-15T08:45:05Z</time>
      </trkpt>
      <trkpt lat="49.89967" lon="5.26192">
        <ele>404</ele>
        <time>2018-06-15T08:45:16Z</time>
      </trkpt>
      <trkpt lat="49.89951" lon="5.26196">
        <ele>404</ele>
        <time>2018-06-15T08:45:27Z</time>
      </trkpt>
      <trkpt lat="49.89931" lon="5.262">
        <ele>405</ele>
        <time>2018-06-15T08:45:38Z</time>
      </trkpt>
      <trkpt lat="49.89914" lon="5.26202">
        <ele>404</ele>
        <time>2018-06-15T08:45:49Z</time>
      </trkpt>
      <trkpt lat="49.89899" lon="5.26207">
        <ele>406</ele>
        <time>2018-06-15T08:46:00Z</time>
      </trkpt>
      <trkpt lat="49.89884" lon="5.2621">
        <ele>406</ele>
        <time>2018-06-15T08:46:10Z</time>
      </trkpt>
      <trkpt lat="49.89869" lon="5.26213">
        <ele>406</ele>
        <time>2018-06-15T08:46:20Z</time>
      </trkpt>
      <trkpt lat="49.89854" lon="5.26219">
        <ele>406</ele>
        <time>2018-06-15T08:46:31Z</time>
      </trkpt>
      <trkpt lat="49.89839" lon="5.26223">
        <ele>407</ele>
        <time>2018-06-15T08:46:41Z</time>
      </trkpt>
      <trkpt lat="49.89825" lon="5.26226">
        <ele>407</ele>
        <time>2018-06-15T08:46:52Z</time>
      </trkpt>
      <trkpt lat="49.89814" lon="5.26228">
        <ele>407</ele>
        <time>2018-06-15T08:47:02Z</time>
      </trkpt>
      <trkpt lat="49.89803" lon="5.26231">
        <ele>408</ele>
        <time>2018-06-15T08:47:12Z</time>
      </trkpt>
      <trkpt lat="49.89791" lon="5.26235">
        <ele>408</ele>
        <time>2018-06-15T08:47:22Z</time>
      </trkpt>
      <trkpt lat="49.89776" lon="5.26237">
        <ele>408</ele>
        <time>2018-06-15T08:47:32Z</time>
      </trkpt>
      <trkpt lat="49.89758" lon="5.26234">
        <ele>409</ele>
        <time>2018-06-15T08:47:43Z</time>
      </trkpt>
      <trkpt lat="49.89741" lon="5.26222">
        <ele>408</ele>
        <time>2018-06-15T08:47:54Z</time>
      </trkpt>
      <trkpt lat="49.89731" lon="5.26205">
        <ele>408</ele>
        <time>2018-06-15T08:48:04Z</time>
      </trkpt>
      <trkpt lat="49.89723" lon="5.26183">
        <ele>407</ele>
        <time>2018-06-15T08:48:14Z</time>
      </trkpt>
      <trkpt lat="49.89716" lon="5.26159">
        <ele>407</ele>
        <time>2018-06-15T08:48:24Z</time>
      </trkpt>
      <trkpt lat="49.89709" lon="5.26134">
        <ele>407</ele>
        <time>2018-06-15T08:48:34Z</time>
      </trkpt>
      <trkpt lat="49.89698" lon="5.26111">
        <ele>407</ele>
        <time>2018-06-15T08:48:45Z</time>
      </trkpt>
      <trkpt lat="49.89679" lon="5.26097">
        <ele>408</ele>
        <time>2018-06-15T08:48:56Z</time>
      </trkpt>
      <trkpt lat="49.89661" lon="5.26087">
        <ele>406</ele>
        <time>2018-06-15T08:49:07Z</time>
      </trkpt>
      <trkpt lat="49.89645" lon="5.26076">
        <ele>405</ele>
        <time>2018-06-15T08:49:17Z</time>
      </trkpt>
      <trkpt lat="49.89627" lon="5.26063">
        <ele>404</ele>
        <time>2018-06-15T08:49:28Z</time>
      </trkpt>
      <trkpt lat="49.8961" lon="5.26043">
        <ele>404</ele>
        <time>2018-06-15T08:49:39Z</time>
      </trkpt>
      <trkpt lat="49.89598" lon="5.2602">
        <ele>403</ele>
        <time>2018-06-15T08:49:49Z</time>
      </trkpt>
      <trkpt lat="49.89588" lon="5.25992">
        <ele>403</ele>
        <time>2018-06-15T08:49:59Z</time>
      </trkpt>
      <trkpt lat="49.89577" lon="5.25964">
        <ele>402</ele>
        <time>2018-06-15T08:50:09Z</time>
      </trkpt>
      <trkpt lat="49.89569" lon="5.25934">
        <ele>401</ele>
        <time>2018-06-15T08:50:20Z</time>
      </trkpt>
      <trkpt lat="49.8956" lon="5.25905">
        <ele>399</ele>
        <time>2018-06-15T08:50:31Z</time>
      </trkpt>
      <trkpt lat="49.89553" lon="5.25876">
        <ele>399</ele>
        <time>2018-06-15T08:50:42Z</time>
      </trkpt>
      <trkpt lat="49.89548" lon="5.25845">
        <ele>399</ele>
        <time>2018-06-15T08:50:53Z</time>
      </trkpt>
      <trkpt lat="49.89543" lon="5.25819">
        <ele>399</ele>
        <time>2018-06-15T08:51:04Z</time>
      </trkpt>
      <trkpt lat="49.89539" lon="5.25792">
        <ele>398</ele>
        <time>2018-06-15T08:51:14Z</time>
      </trkpt>
      <trkpt lat="49.89533" lon="5.25762">
        <ele>398</ele>
        <time>2018-06-15T08:51:25Z</time>
      </trkpt>
      <trkpt lat="49.89524" lon="5.25736">
        <ele>397</ele>
        <time>2018-06-15T08:51:36Z</time>
      </trkpt>
      <trkpt lat="49.89512" lon="5.25715">
        <ele>395</ele>
        <time>2018-06-15T08:51:47Z</time>
      </trkpt>
      <trkpt lat="49.89493" lon="5.25697">
        <ele>395</ele>
        <time>2018-06-15T08:51:58Z</time>
      </trkpt>
      <trkpt lat="49.89473" lon="5.25683">
        <ele>394</ele>
        <time>2018-06-15T08:52:09Z</time>
      </trkpt>
      <trkpt lat="49.89452" lon="5.25672">
        <ele>394</ele>
        <time>2018-06-15T08:52:20Z</time>
      </trkpt>
      <trkpt lat="49.89436" lon="5.25664">
        <ele>395</ele>
        <time>2018-06-15T08:52:30Z</time>
      </trkpt>
      <trkpt lat="49.89414" lon="5.25658">
        <ele>395</ele>
        <time>2018-06-15T08:52:41Z</time>
      </trkpt>
      <trkpt lat="49.89397" lon="5.25651">
        <ele>394</ele>
        <time>2018-06-15T08:52:51Z</time>
      </trkpt>
      <trkpt lat="49.89381" lon="5.25643">
        <ele>394</ele>
        <time>2018-06-15T08:53:02Z</time>
      </trkpt>
      <trkpt lat="49.89364" lon="5.25633">
        <ele>393</ele>
        <time>2018-06-15T08:53:12Z</time>
      </trkpt>
      <trkpt lat="49.89347" lon="5.25623">
        <ele>393</ele>
        <time>2018-06-15T08:53:23Z</time>
      </trkpt>
      <trkpt lat="49.89328" lon="5.2561">
        <ele>392</ele>
        <time>2018-06-15T08:53:34Z</time>
      </trkpt>
      <trkpt lat="49.89312" lon="5.25596">
        <ele>391</ele>
        <time>2018-06-15T08:53:44Z</time>
      </trkpt>
      <trkpt lat="49.89296" lon="5.25581">
        <ele>390</ele>
        <time>2018-06-15T08:53:54Z</time>
      </trkpt>
      <trkpt lat="49.8928" lon="5.25564">
        <ele>389</ele>
        <time>2018-06-15T08:54:04Z</time>
      </trkpt>
      <trkpt lat="49.89266" lon="5.25541">
        <ele>387</ele>
        <time>2018-06-15T08:54:15Z</time>
      </trkpt>
      <trkpt lat="49.8926" lon="5.25513">
        <ele>387</ele>
        <time>2018-06-15T08:54:25Z</time>
      </trkpt>
      <trkpt lat="49.89259" lon="5.25482">
        <ele>386</ele>
        <time>2018-06-15T08:54:36Z</time>
      </trkpt>
      <trkpt lat="49.89263" lon="5.25455">
        <ele>385</ele>
        <time>2018-06-15T08:54:47Z</time>
      </trkpt>
      <trkpt lat="49.89262" lon="5.25426">
        <ele>385</ele>
        <time>2018-06-15T08:54:58Z</time>
      </trkpt>
      <trkpt lat="49.89258" lon="5.25397">
        <ele>384</ele>
        <time>2018-06-15T08:55:09Z</time>
      </trkpt>
      <trkpt lat="49.89252" lon="5.25371">
        <ele>383</ele>
        <time>2018-06-15T08:55:20Z</time>
      </trkpt>
      <trkpt lat="49.89247" lon="5.25348">
        <ele>383</ele>
        <time>2018-06-15T08:55:31Z</time>
      </trkpt>
      <trkpt lat="49.89241" lon="5.25322">
        <ele>382</ele>
        <time>2018-06-15T08:55:42Z</time>
      </trkpt>
      <trkpt lat="49.89236" lon="5.25299">
        <ele>382</ele>
        <time>2018-06-15T08:55:53Z</time>
      </trkpt>
      <trkpt lat="49.89231" lon="5.25281">
        <ele>381</ele>
        <time>2018-06-15T08:56:03Z</time>
      </trkpt>
      <trkpt lat="49.89226" lon="5.2526">
        <ele>380</ele>
        <time>2018-06-15T08:56:13Z</time>
      </trkpt>
      <trkpt lat="49.89219" lon="5.25236">
        <ele>380</ele>
        <time>2018-06-15T08:56:24Z</time>
      </trkpt>
      <trkpt lat="49.89209" lon="5.25217">
        <ele>380</ele>
        <time>2018-06-15T08:56:34Z</time>
      </trkpt>
      <trkpt lat="49.89198" lon="5.25208">
        <ele>381</ele>
        <time>2018-06-15T08:56:45Z</time>
      </trkpt>
      <trkpt lat="49.89191" lon="5.25204">
        <ele>380</ele>
        <time>2018-06-15T08:56:55Z</time>
      </trkpt>
      <trkpt lat="49.89188" lon="5.25204">
        <ele>380</ele>
        <time>2018-06-15T08:57:06Z</time>
      </trkpt>
      <trkpt lat="49.89177" lon="5.25199">
        <ele>381</ele>
        <time>2018-06-15T08:57:16Z</time>
      </trkpt>
      <trkpt lat="49.89165" lon="5.25191">
        <ele>382</ele>
        <time>2018-06-15T08:57:27Z</time>
      </trkpt>
      <trkpt lat="49.89154" lon="5.25176">
        <ele>383</ele>
        <time>2018-06-15T08:57:37Z</time>
      </trkpt>
      <trkpt lat="49.89149" lon="5.25156">
        <ele>384</ele>
        <time>2018-06-15T08:57:47Z</time>
      </trkpt>
      <trkpt lat="49.89147" lon="5.25134">
        <ele>384</ele>
        <time>2018-06-15T08:57:58Z</time>
      </trkpt>
      <trkpt lat="49.89145" lon="5.25113">
        <ele>384</ele>
        <time>2018-06-15T08:58:08Z</time>
      </trkpt>
      <trkpt lat="49.89144" lon="5.25092">
        <ele>384</ele>
        <time>2018-06-15T08:58:18Z</time>
      </trkpt>
      <trkpt lat="49.89145" lon="5.25069">
        <ele>384</ele>
        <time>2018-06-15T08:58:28Z</time>
      </trkpt>
      <trkpt lat="49.89146" lon="5.25046">
        <ele>384</ele>
        <time>2018-06-15T08:58:39Z</time>
      </trkpt>
      <trkpt lat="49.89149" lon="5.25028">
        <ele>383</ele>
        <time>2018-06-15T08:58:49Z</time>
      </trkpt>
      <trkpt lat="49.89151" lon="5.25006">
        <ele>383</ele>
        <time>2018-06-15T08:59:00Z</time>
      </trkpt>
      <trkpt lat="49.89147" lon="5.24984">
        <ele>383</ele>
        <time>2018-06-15T08:59:10Z</time>
      </trkpt>
      <trkpt lat="49.89138" lon="5.24964">
        <ele>383</ele>
        <time>2018-06-15T08:59:21Z</time>
      </trkpt>
      <trkpt lat="49.89126" lon="5.24948">
        <ele>383</ele>
        <time>2018-06-15T08:59:31Z</time>
      </trkpt>
      <trkpt lat="49.89114" lon="5.24937">
        <ele>382</ele>
        <time>2018-06-15T08:59:41Z</time>
      </trkpt>
      <trkpt lat="49.891" lon="5.24926">
        <ele>382</ele>
        <time>2018-06-15T08:59:52Z</time>
      </trkpt>
      <trkpt lat="49.89088" lon="5.24915">
        <ele>381</ele>
        <time>2018-06-15T09:00:02Z</time>
      </trkpt>
      <trkpt lat="49.89077" lon="5.24897">
        <ele>380</ele>
        <time>2018-06-15T09:00:14Z</time>
      </trkpt>
      <trkpt lat="49.8907" lon="5.2488">
        <ele>381</ele>
        <time>2018-06-15T09:00:24Z</time>
      </trkpt>
      <trkpt lat="49.89061" lon="5.24864">
        <ele>380</ele>
        <time>2018-06-15T09:00:35Z</time>
      </trkpt>
      <trkpt lat="49.8905" lon="5.24855">
        <ele>380</ele>
        <time>2018-06-15T09:00:45Z</time>
      </trkpt>
      <trkpt lat="49.89038" lon="5.24844">
        <ele>379</ele>
        <time>2018-06-15T09:00:55Z</time>
      </trkpt>
      <trkpt lat="49.89025" lon="5.24831">
        <ele>379</ele>
        <time>2018-06-15T09:01:06Z</time>
      </trkpt>
      <trkpt lat="49.89013" lon="5.2482">
        <ele>378</ele>
        <time>2018-06-15T09:01:16Z</time>
      </trkpt>
      <trkpt lat="49.89003" lon="5.24816">
        <ele>378</ele>
        <time>2018-06-15T09:01:26Z</time>
      </trkpt>
      <trkpt lat="49.88991" lon="5.24808">
        <ele>378</ele>
        <time>2018-06-15T09:01:36Z</time>
      </trkpt>
      <trkpt lat="49.88978" lon="5.24795">
        <ele>378</ele>
        <time>2018-06-15T09:01:47Z</time>
      </trkpt>
      <trkpt lat="49.88963" lon="5.2478">
        <ele>378</ele>
        <time>2018-06-15T09:01:58Z</time>
      </trkpt>
      <trkpt lat="49.8895" lon="5.24767">
        <ele>377</ele>
        <time>2018-06-15T09:02:08Z</time>
      </trkpt>
      <trkpt lat="49.88936" lon="5.24754">
        <ele>378</ele>
        <time>2018-06-15T09:02:19Z</time>
      </trkpt>
      <trkpt lat="49.88923" lon="5.24743">
        <ele>377</ele>
        <time>2018-06-15T09:02:30Z</time>
      </trkpt>
      <trkpt lat="49.88909" lon="5.24731">
        <ele>377</ele>
        <time>2018-06-15T09:02:41Z</time>
      </trkpt>
      <trkpt lat="49.88895" lon="5.24718">
        <ele>378</ele>
        <time>2018-06-15T09:02:52Z</time>
      </trkpt>
      <trkpt lat="49.88889" lon="5.24714">
        <ele>377</ele>
        <time>2018-06-15T09:03:03Z</time>
      </trkpt>
      <trkpt lat="49.88885" lon="5.24712">
        <ele>378</ele>
        <time>2018-06-15T09:03:13Z</time>
      </trkpt>
      <trkpt lat="49.88873" lon="5.24701">
        <ele>377</ele>
        <time>2018-06-15T09:03:23Z</time>
      </trkpt>
      <trkpt lat="49.88855" lon="5.24687">
        <ele>377</ele>
        <time>2018-06-15T09:03:34Z</time>
      </trkpt>
      <trkpt lat="49.88834" lon="5.24671">
        <ele>376</ele>
        <time>2018-06-15T09:03:45Z</time>
      </trkpt>
      <trkpt lat="49.88816" lon="5.24654">
        <ele>375</ele>
        <time>2018-06-15T09:03:55Z</time>
      </trkpt>
      <trkpt lat="49.88799" lon="5.24638">
        <ele>374</ele>
        <time>2018-06-15T09:04:05Z</time>
      </trkpt>
      <trkpt lat="49.8878" lon="5.24621">
        <ele>373</ele>
        <time>2018-06-15T09:04:15Z</time>
      </trkpt>
      <trkpt lat="49.8876" lon="5.24604">
        <ele>372</ele>
        <time>2018-06-15T09:04:26Z</time>
      </trkpt>
      <trkpt lat="49.8874" lon="5.24585">
        <ele>371</ele>
        <time>2018-06-15T09:04:37Z</time>
      </trkpt>
      <trkpt lat="49.88723" lon="5.24572">
        <ele>370</ele>
        <time>2018-06-15T09:04:47Z</time>
      </trkpt>
      <trkpt lat="49.88703" lon="5.24554">
        <ele>370</ele>
        <time>2018-06-15T09:04:58Z</time>
      </trkpt>
      <trkpt lat="49.88685" lon="5.2454">
        <ele>369</ele>
        <time>2018-06-15T09:05:09Z</time>
      </trkpt>
      <trkpt lat="49.88667" lon="5.24524">
        <ele>369</ele>
        <time>2018-06-15T09:05:19Z</time>
      </trkpt>
      <trkpt lat="49.88649" lon="5.24509">
        <ele>369</ele>
        <time>2018-06-15T09:05:29Z</time>
      </trkpt>
      <trkpt lat="49.88637" lon="5.24493">
        <ele>369</ele>
        <time>2018-06-15T09:05:40Z</time>
      </trkpt>
      <trkpt lat="49.88632" lon="5.24478">
        <ele>368</ele>
        <time>2018-06-15T09:05:50Z</time>
      </trkpt>
      <trkpt lat="49.88628" lon="5.2446">
        <ele>368</ele>
        <time>2018-06-15T09:06:01Z</time>
      </trkpt>
      <trkpt lat="49.88622" lon="5.2444">
        <ele>369</ele>
        <time>2018-06-15T09:06:12Z</time>
      </trkpt>
      <trkpt lat="49.88616" lon="5.24419">
        <ele>368</ele>
        <time>2018-06-15T09:06:23Z</time>
      </trkpt>
      <trkpt lat="49.88611" lon="5.24398">
        <ele>368</ele>
        <time>2018-06-15T09:06:33Z</time>
      </trkpt>
      <trkpt lat="49.88604" lon="5.24377">
        <ele>368</ele>
        <time>2018-06-15T09:06:44Z</time>
      </trkpt>
      <trkpt lat="49.88597" lon="5.2436">
        <ele>368</ele>
        <time>2018-06-15T09:06:54Z</time>
      </trkpt>
      <trkpt lat="49.88591" lon="5.24341">
        <ele>369</ele>
        <time>2018-06-15T09:07:04Z</time>
      </trkpt>
      <trkpt lat="49.88584" lon="5.24325">
        <ele>369</ele>
        <time>2018-06-15T09:07:14Z</time>
      </trkpt>
      <trkpt lat="49.88578" lon="5.24307">
        <ele>369</ele>
        <time>2018-06-15T09:07:25Z</time>
      </trkpt>
      <trkpt lat="49.88572" lon="5.24288">
        <ele>369</ele>
        <time>2018-06-15T09:07:36Z</time>
      </trkpt>
      <trkpt lat="49.88566" lon="5.2427">
        <ele>369</ele>
        <time>2018-06-15T09:07:46Z</time>
      </trkpt>
      <trkpt lat="49.8856" lon="5.2425">
        <ele>369</ele>
        <time>2018-06-15T09:07:56Z</time>
      </trkpt>
      <trkpt lat="49.88553" lon="5.24229">
        <ele>368</ele>
        <time>2018-06-15T09:08:07Z</time>
      </trkpt>
      <trkpt lat="49.88546" lon="5.24207">
        <ele>369</ele>
        <time>2018-06-15T09:08:17Z</time>
      </trkpt>
      <trkpt lat="49.88538" lon="5.24181">
        <ele>368</ele>
        <time>2018-06-15T09:08:28Z</time>
      </trkpt>
      <trkpt lat="49.88531" lon="5.24159">
        <ele>368</ele>
        <time>2018-06-15T09:08:38Z</time>
      </trkpt>
      <trkpt lat="49.88522" lon="5.24135">
        <ele>368</ele>
        <time>2018-06-15T09:08:49Z</time>
      </trkpt>
      <trkpt lat="49.88514" lon="5.24117">
        <ele>368</ele>
        <time>2018-06-15T09:08:59Z</time>
      </trkpt>
      <trkpt lat="49.88506" lon="5.24098">
        <ele>368</ele>
        <time>2018-06-15T09:09:10Z</time>
      </trkpt>
      <trkpt lat="49.885" lon="5.2408">
        <ele>368</ele>
        <time>2018-06-15T09:09:21Z</time>
      </trkpt>
      <trkpt lat="49.88493" lon="5.24059">
        <ele>368</ele>
        <time>2018-06-15T09:09:31Z</time>
      </trkpt>
      <trkpt lat="49.88486" lon="5.24044">
        <ele>368</ele>
        <time>2018-06-15T09:09:41Z</time>
      </trkpt>
      <trkpt lat="49.88479" lon="5.24026">
        <ele>368</ele>
        <time>2018-06-15T09:09:51Z</time>
      </trkpt>
      <trkpt lat="49.88471" lon="5.24008">
        <ele>369</ele>
        <time>2018-06-15T09:10:02Z</time>
      </trkpt>
      <trkpt lat="49.88464" lon="5.2399">
        <ele>369</ele>
        <time>2018-06-15T09:10:12Z</time>
      </trkpt>
      <trkpt lat="49.88454" lon="5.23974">
        <ele>368</ele>
        <time>2018-06-15T09:10:23Z</time>
      </trkpt>
      <trkpt lat="49.88447" lon="5.23954">
        <ele>369</ele>
        <time>2018-06-15T09:10:34Z</time>
      </trkpt>
      <trkpt lat="49.88439" lon="5.23935">
        <ele>369</ele>
        <time>2018-06-15T09:10:45Z</time>
      </trkpt>
      <trkpt lat="49.8843" lon="5.2392">
        <ele>369</ele>
        <time>2018-06-15T09:10:55Z</time>
      </trkpt>
      <trkpt lat="49.8842" lon="5.23907">
        <ele>368</ele>
        <time>2018-06-15T09:11:06Z</time>
      </trkpt>
      <trkpt lat="49.88409" lon="5.23894">
        <ele>368</ele>
        <time>2018-06-15T09:11:17Z</time>
      </trkpt>
      <trkpt lat="49.88398" lon="5.23881">
        <ele>369</ele>
        <time>2018-06-15T09:11:28Z</time>
      </trkpt>
      <trkpt lat="49.88388" lon="5.23869">
        <ele>368</ele>
        <time>2018-06-15T09:11:38Z</time>
      </trkpt>
      <trkpt lat="49.88379" lon="5.23851">
        <ele>369</ele>
        <time>2018-06-15T09:11:49Z</time>
      </trkpt>
      <trkpt lat="49.88367" lon="5.23832">
        <ele>368</ele>
        <time>2018-06-15T09:11:59Z</time>
      </trkpt>
      <trkpt lat="49.88356" lon="5.23814">
        <ele>368</ele>
        <time>2018-06-15T09:12:09Z</time>
      </trkpt>
      <trkpt lat="49.88344" lon="5.23797">
        <ele>368</ele>
        <time>2018-06-15T09:12:20Z</time>
      </trkpt>
      <trkpt lat="49.88336" lon="5.23782">
        <ele>368</ele>
        <time>2018-06-15T09:12:30Z</time>
      </trkpt>
      <trkpt lat="49.88325" lon="5.23768">
        <ele>368</ele>
        <time>2018-06-15T09:12:40Z</time>
      </trkpt>
      <trkpt lat="49.88314" lon="5.23754">
        <ele>368</ele>
        <time>2018-06-15T09:12:50Z</time>
      </trkpt>
      <trkpt lat="49.88304" lon="5.23736">
        <ele>368</ele>
        <time>2018-06-15T09:13:01Z</time>
      </trkpt>
      <trkpt lat="49.88296" lon="5.23717">
        <ele>368</ele>
        <time>2018-06-15T09:13:12Z</time>
      </trkpt>
      <trkpt lat="49.88291" lon="5.23699">
        <ele>368</ele>
        <time>2018-06-15T09:13:22Z</time>
      </trkpt>
      <trkpt lat="49.88286" lon="5.23677">
        <ele>367</ele>
        <time>2018-06-15T09:13:33Z</time>
      </trkpt>
      <trkpt lat="49.88281" lon="5.23656">
        <ele>367</ele>
        <time>2018-06-15T09:13:43Z</time>
      </trkpt>
      <trkpt lat="49.88277" lon="5.23635">
        <ele>367</ele>
        <time>2018-06-15T09:13:53Z</time>
      </trkpt>
      <trkpt lat="49.88271" lon="5.23609">
        <ele>366</ele>
        <time>2018-06-15T09:14:04Z</time>
      </trkpt>
      <trkpt lat="49.88264" lon="5.23585">
        <ele>366</ele>
        <time>2018-06-15T09:14:14Z</time>
      </trkpt>
      <trkpt lat="49.88258" lon="5.23552">
        <ele>367</ele>
        <time>2018-06-15T09:14:25Z</time>
      </trkpt>
      <trkpt lat="49.88251" lon="5.23522">
        <ele>367</ele>
        <time>2018-06-15T09:14:35Z</time>
      </trkpt>
      <trkpt lat="49.88244" lon="5.23496">
        <ele>366</ele>
        <time>2018-06-15T09:14:45Z</time>
      </trkpt>
      <trkpt lat="49.88236" lon="5.2347">
        <ele>366</ele>
        <time>2018-06-15T09:14:56Z</time>
      </trkpt>
      <trkpt lat="49.88227" lon="5.23445">
        <ele>366</ele>
        <time>2018-06-15T09:15:07Z</time>
      </trkpt>
      <trkpt lat="49.88221" lon="5.23417">
        <ele>366</ele>
        <time>2018-06-15T09:15:18Z</time>
      </trkpt>
      <trkpt lat="49.88213" lon="5.23387">
        <ele>366</ele>
        <time>2018-06-15T09:15:28Z</time>
      </trkpt>
      <trkpt lat="49.88199" lon="5.23366">
        <ele>365</ele>
        <time>2018-06-15T09:15:39Z</time>
      </trkpt>
      <trkpt lat="49.88187" lon="5.23371">
        <ele>365</ele>
        <time>2018-06-15T09:15:49Z</time>
      </trkpt>
      <trkpt lat="49.88176" lon="5.23388">
        <ele>365</ele>
        <time>2018-06-15T09:15:59Z</time>
      </trkpt>
      <trkpt lat="49.88163" lon="5.23412">
        <ele>364</ele>
        <time>2018-06-15T09:16:10Z</time>
      </trkpt>
      <trkpt lat="49.88151" lon="5.23435">
        <ele>363</ele>
        <time>2018-06-15T09:16:21Z</time>
      </trkpt>
      <trkpt lat="49.88142" lon="5.2346">
        <ele>363</ele>
        <time>2018-06-15T09:16:32Z</time>
      </trkpt>
      <trkpt lat="49.88131" lon="5.23478">
        <ele>364</ele>
        <time>2018-06-15T09:16:43Z</time>
      </trkpt>
      <trkpt lat="49.88122" lon="5.23497">
        <ele>364</ele>
        <time>2018-06-15T09:16:53Z</time>
      </trkpt>
      <trkpt lat="49.88112" lon="5.23518">
        <ele>365</ele>
        <time>2018-06-15T09:17:04Z</time>
      </trkpt>
      <trkpt lat="49.881" lon="5.23539">
        <ele>365</ele>
        <time>2018-06-15T09:17:15Z</time>
      </trkpt>
      <trkpt lat="49.88093" lon="5.23558">
        <ele>365</ele>
        <time>2018-06-15T09:17:26Z</time>
      </trkpt>
      <trkpt lat="49.88084" lon="5.23577">
        <ele>366</ele>
        <time>2018-06-15T09:17:37Z</time>
      </trkpt>
      <trkpt lat="49.88073" lon="5.23596">
        <ele>366</ele>
        <time>2018-06-15T09:17:48Z</time>
      </trkpt>
      <trkpt lat="49.88064" lon="5.23611">
        <ele>367</ele>
        <time>2018-06-15T09:17:58Z</time>
      </trkpt>
      <trkpt lat="49.88054" lon="5.23629">
        <ele>368</ele>
        <time>2018-06-15T09:18:09Z</time>
      </trkpt>
      <trkpt lat="49.88045" lon="5.23644">
        <ele>367</ele>
        <time>2018-06-15T09:18:19Z</time>
      </trkpt>
      <trkpt lat="49.88034" lon="5.23661">
        <ele>368</ele>
        <time>2018-06-15T09:18:30Z</time>
      </trkpt>
      <trkpt lat="49.88024" lon="5.23677">
        <ele>369</ele>
        <time>2018-06-15T09:18:41Z</time>
      </trkpt>
      <trkpt lat="49.88015" lon="5.23691">
        <ele>369</ele>
        <time>2018-06-15T09:18:51Z</time>
      </trkpt>
      <trkpt lat="49.88005" lon="5.23712">
        <ele>370</ele>
        <time>2018-06-15T09:19:02Z</time>
      </trkpt>
      <trkpt lat="49.87994" lon="5.23737">
        <ele>371</ele>
        <time>2018-06-15T09:19:12Z</time>
      </trkpt>
      <trkpt lat="49.87982" lon="5.23769">
        <ele>372</ele>
        <time>2018-06-15T09:19:23Z</time>
      </trkpt>
      <trkpt lat="49.87972" lon="5.23799">
        <ele>372</ele>
        <time>2018-06-15T09:19:33Z</time>
      </trkpt>
      <trkpt lat="49.8796" lon="5.23832">
        <ele>374</ele>
        <time>2018-06-15T09:19:44Z</time>
      </trkpt>
      <trkpt lat="49.8795" lon="5.23861">
        <ele>373</ele>
        <time>2018-06-15T09:19:54Z</time>
      </trkpt>
      <trkpt lat="49.87939" lon="5.23893">
        <ele>374</ele>
        <time>2018-06-15T09:20:05Z</time>
      </trkpt>
      <trkpt lat="49.8793" lon="5.23924">
        <ele>375</ele>
        <time>2018-06-15T09:20:16Z</time>
      </trkpt>
      <trkpt lat="49.8793" lon="5.23947">
        <ele>374</ele>
        <time>2018-06-15T09:20:26Z</time>
      </trkpt>
      <trkpt lat="49.87933" lon="5.23957">
        <ele>374</ele>
        <time>2018-06-15T09:20:37Z</time>
      </trkpt>
      <trkpt lat="49.87939" lon="5.23964">
        <ele>373</ele>
        <time>2018-06-15T09:20:48Z</time>
      </trkpt>
      <trkpt lat="49.87939" lon="5.23964">
        <ele>373</ele>
        <time>2018-06-15T09:20:49Z</time>
      </trkpt>
    </trkseg>
  </trk>
</gpx>